<?xml version="1.0" encoding="UTF-8"?>
<gpx version="1.0" creator="Trackator" xmlns:xsi="http://www.w3.org/2001/XMLSchema-instance" xmlns="http://www.topografix.com/GPX/1/0" xmlns:topografix="http://www.topografix.com/GPX/Private/TopoGrafix/0/1" xsi:schemaLocation="http://www.topografix.com/GPX/1/0 http://www.topografix.com/GPX/1/0/gpx.xsd http://www.topografix.com/GPX/Private/TopoGrafix/0/1 http://www.topografix.com/GPX/Private/TopoGrafix/0/1/topografix.xsd">
<metadata>
<link href="http://www.trackator.com">
<text>Trackator</text>
</link>
</metadata>
<time>2014-03-08T:24:39Z</time>
<trk>
<name>Track: </name>
<desc>Paragliding</desc>
<trkseg>
<trkpt lat="37.82957077" lon="-1.30512455">
<ele>1024</ele>
<time>2014-03-08T:24:39Z</time>
</trkpt>
<trkpt lat="37.8295663" lon="-1.30511774">
<ele>1024</ele>
<time>2014-03-08T12:24:41Z</time>
</trkpt>
<trkpt lat="37.82956582" lon="-1.30512">
<ele>1024</ele>
<time>2014-03-08T12:24:43Z</time>
</trkpt>
<trkpt lat="37.82956114" lon="-1.30511801">
<ele>1023</ele>
<time>2014-03-08T12:24:45Z</time>
</trkpt>
<trkpt lat="37.8295596" lon="-1.30511883">
<ele>1023</ele>
<time>2014-03-08T12:24:47Z</time>
</trkpt>
<trkpt lat="37.82955066" lon="-1.30511299">
<ele>1023</ele>
<time>2014-03-08T12:24:49Z</time>
</trkpt>
<trkpt lat="37.82954548" lon="-1.30510888">
<ele>1023</ele>
<time>2014-03-08T12:24:51Z</time>
</trkpt>
<trkpt lat="37.82954123" lon="-1.30510748">
<ele>1023</ele>
<time>2014-03-08T12:24:53Z</time>
</trkpt>
<trkpt lat="37.82953603" lon="-1.30510616">
<ele>1023</ele>
<time>2014-03-08T12:24:55Z</time>
</trkpt>
<trkpt lat="37.82953172" lon="-1.30510472">
<ele>1023</ele>
<time>2014-03-08T12:24:57Z</time>
</trkpt>
<trkpt lat="37.82953072" lon="-1.30510432">
<ele>1023</ele>
<time>2014-03-08T12:24:59Z</time>
</trkpt>
<trkpt lat="37.82953027" lon="-1.30510405">
<ele>1023</ele>
<time>2014-03-08T12:25:01Z</time>
</trkpt>
<trkpt lat="37.82951551" lon="-1.30509766">
<ele>1023</ele>
<time>2014-03-08T12:25:03Z</time>
</trkpt>
<trkpt lat="37.8295009" lon="-1.30509509">
<ele>1022</ele>
<time>2014-03-08T12:25:05Z</time>
</trkpt>
<trkpt lat="37.82947827" lon="-1.30508311">
<ele>1023</ele>
<time>2014-03-08T12:25:07Z</time>
</trkpt>
<trkpt lat="37.82944924" lon="-1.30507507">
<ele>1023</ele>
<time>2014-03-08T12:25:09Z</time>
</trkpt>
<trkpt lat="37.82943056" lon="-1.30505873">
<ele>1022</ele>
<time>2014-03-08T12:25:11Z</time>
</trkpt>
<trkpt lat="37.82941492" lon="-1.3050463">
<ele>1022</ele>
<time>2014-03-08T12:25:13Z</time>
</trkpt>
<trkpt lat="37.82940861" lon="-1.30504902">
<ele>1022</ele>
<time>2014-03-08T12:25:15Z</time>
</trkpt>
<trkpt lat="37.82939418" lon="-1.30505127">
<ele>1022</ele>
<time>2014-03-08T12:25:17Z</time>
</trkpt>
<trkpt lat="37.82938225" lon="-1.30504506">
<ele>1022</ele>
<time>2014-03-08T12:25:19Z</time>
</trkpt>
<trkpt lat="37.82937536" lon="-1.3050428">
<ele>1022</ele>
<time>2014-03-08T12:25:21Z</time>
</trkpt>
<trkpt lat="37.82937084" lon="-1.30503525">
<ele>1021</ele>
<time>2014-03-08T12:25:23Z</time>
</trkpt>
<trkpt lat="37.82936201" lon="-1.30502682">
<ele>1021</ele>
<time>2014-03-08T12:25:25Z</time>
</trkpt>
<trkpt lat="37.82935041" lon="-1.30502149">
<ele>1021</ele>
<time>2014-03-08T12:25:27Z</time>
</trkpt>
<trkpt lat="37.82933318" lon="-1.30501724">
<ele>1022</ele>
<time>2014-03-08T12:25:29Z</time>
</trkpt>
<trkpt lat="37.82931665" lon="-1.30501889">
<ele>1022</ele>
<time>2014-03-08T12:25:31Z</time>
</trkpt>
<trkpt lat="37.8293024" lon="-1.30502387">
<ele>1022</ele>
<time>2014-03-08T12:25:33Z</time>
</trkpt>
<trkpt lat="37.8293041" lon="-1.30503949">
<ele>1022</ele>
<time>2014-03-08T12:25:35Z</time>
</trkpt>
<trkpt lat="37.82929834" lon="-1.30503169">
<ele>1021</ele>
<time>2014-03-08T12:25:37Z</time>
</trkpt>
<trkpt lat="37.82930747" lon="-1.30503293">
<ele>1020</ele>
<time>2014-03-08T12:25:39Z</time>
</trkpt>
<trkpt lat="37.82931722" lon="-1.30503705">
<ele>1020</ele>
<time>2014-03-08T12:25:41Z</time>
</trkpt>
<trkpt lat="37.82931875" lon="-1.30503801">
<ele>1021</ele>
<time>2014-03-08T12:25:43Z</time>
</trkpt>
<trkpt lat="37.82931977" lon="-1.30503937">
<ele>1021</ele>
<time>2014-03-08T12:25:45Z</time>
</trkpt>
<trkpt lat="37.8293223" lon="-1.30504309">
<ele>1021</ele>
<time>2014-03-08T12:25:47Z</time>
</trkpt>
<trkpt lat="37.82931556" lon="-1.30504644">
<ele>1021</ele>
<time>2014-03-08T12:25:49Z</time>
</trkpt>
<trkpt lat="37.8293133" lon="-1.30504583">
<ele>1020</ele>
<time>2014-03-08T12:25:51Z</time>
</trkpt>
<trkpt lat="37.82930311" lon="-1.30504581">
<ele>1018</ele>
<time>2014-03-08T12:25:53Z</time>
</trkpt>
<trkpt lat="37.82929258" lon="-1.3050393">
<ele>1019</ele>
<time>2014-03-08T12:25:55Z</time>
</trkpt>
<trkpt lat="37.82928085" lon="-1.30502499">
<ele>1018</ele>
<time>2014-03-08T12:25:57Z</time>
</trkpt>
<trkpt lat="37.82927809" lon="-1.30501108">
<ele>1015</ele>
<time>2014-03-08T12:25:59Z</time>
</trkpt>
<trkpt lat="37.829282" lon="-1.3049964">
<ele>1014</ele>
<time>2014-03-08T12:26:01Z</time>
</trkpt>
<trkpt lat="37.82929422" lon="-1.30498922">
<ele>1014</ele>
<time>2014-03-08T12:26:03Z</time>
</trkpt>
<trkpt lat="37.8293073" lon="-1.30498722">
<ele>1014</ele>
<time>2014-03-08T12:26:05Z</time>
</trkpt>
<trkpt lat="37.82931703" lon="-1.30498832">
<ele>1014</ele>
<time>2014-03-08T12:26:07Z</time>
</trkpt>
<trkpt lat="37.82932105" lon="-1.30498887">
<ele>1014</ele>
<time>2014-03-08T12:26:09Z</time>
</trkpt>
<trkpt lat="37.82932099" lon="-1.30498821">
<ele>1014</ele>
<time>2014-03-08T12:26:11Z</time>
</trkpt>
<trkpt lat="37.82932016" lon="-1.30499098">
<ele>1014</ele>
<time>2014-03-08T12:26:13Z</time>
</trkpt>
<trkpt lat="37.82934605" lon="-1.30500246">
<ele>1014</ele>
<time>2014-03-08T12:26:15Z</time>
</trkpt>
<trkpt lat="37.82936561" lon="-1.30501072">
<ele>1014</ele>
<time>2014-03-08T12:26:17Z</time>
</trkpt>
<trkpt lat="37.82937309" lon="-1.3050131">
<ele>1013</ele>
<time>2014-03-08T12:26:19Z</time>
</trkpt>
<trkpt lat="37.82937358" lon="-1.30501331">
<ele>1014</ele>
<time>2014-03-08T12:26:21Z</time>
</trkpt>
<trkpt lat="37.82937278" lon="-1.30501306">
<ele>1014</ele>
<time>2014-03-08T12:26:23Z</time>
</trkpt>
<trkpt lat="37.82936719" lon="-1.30501187">
<ele>1012</ele>
<time>2014-03-08T12:26:25Z</time>
</trkpt>
<trkpt lat="37.82935449" lon="-1.30499114">
<ele>1012</ele>
<time>2014-03-08T12:26:27Z</time>
</trkpt>
<trkpt lat="37.82933409" lon="-1.30495513">
<ele>1014</ele>
<time>2014-03-08T12:26:29Z</time>
</trkpt>
<trkpt lat="37.82928897" lon="-1.30495564">
<ele>1014</ele>
<time>2014-03-08T12:26:31Z</time>
</trkpt>
<trkpt lat="37.82925187" lon="-1.3049391">
<ele>1015</ele>
<time>2014-03-08T12:26:33Z</time>
</trkpt>
<trkpt lat="37.82920526" lon="-1.30491625">
<ele>1016</ele>
<time>2014-03-08T12:26:35Z</time>
</trkpt>
<trkpt lat="37.82915362" lon="-1.30489311">
<ele>1016</ele>
<time>2014-03-08T12:26:37Z</time>
</trkpt>
<trkpt lat="37.82910562" lon="-1.30488964">
<ele>1016</ele>
<time>2014-03-08T12:26:39Z</time>
</trkpt>
<trkpt lat="37.82904829" lon="-1.30486648">
<ele>1018</ele>
<time>2014-03-08T12:26:41Z</time>
</trkpt>
<trkpt lat="37.82898543" lon="-1.3048821">
<ele>1016</ele>
<time>2014-03-08T12:26:43Z</time>
</trkpt>
<trkpt lat="37.82892978" lon="-1.30488385">
<ele>1017</ele>
<time>2014-03-08T12:26:45Z</time>
</trkpt>
<trkpt lat="37.82886294" lon="-1.30489644">
<ele>1023</ele>
<time>2014-03-08T12:26:47Z</time>
</trkpt>
<trkpt lat="37.82879724" lon="-1.30489871">
<ele>1024</ele>
<time>2014-03-08T12:26:49Z</time>
</trkpt>
<trkpt lat="37.82872911" lon="-1.30487344">
<ele>1026</ele>
<time>2014-03-08T12:26:51Z</time>
</trkpt>
<trkpt lat="37.82866076" lon="-1.30480926">
<ele>1025</ele>
<time>2014-03-08T12:26:53Z</time>
</trkpt>
<trkpt lat="37.82859117" lon="-1.30482354">
<ele>1024</ele>
<time>2014-03-08T12:26:55Z</time>
</trkpt>
<trkpt lat="37.82850808" lon="-1.30482158">
<ele>1026</ele>
<time>2014-03-08T12:26:57Z</time>
</trkpt>
<trkpt lat="37.82843425" lon="-1.30481187">
<ele>1025</ele>
<time>2014-03-08T12:26:59Z</time>
</trkpt>
<trkpt lat="37.82836487" lon="-1.304823">
<ele>1025</ele>
<time>2014-03-08T12:27:01Z</time>
</trkpt>
<trkpt lat="37.82831692" lon="-1.30483652">
<ele>1026</ele>
<time>2014-03-08T12:27:03Z</time>
</trkpt>
<trkpt lat="37.8282565" lon="-1.30489518">
<ele>1016</ele>
<time>2014-03-08T12:27:05Z</time>
</trkpt>
<trkpt lat="37.82818693" lon="-1.30494252">
<ele>1014</ele>
<time>2014-03-08T12:27:07Z</time>
</trkpt>
<trkpt lat="37.82813922" lon="-1.30497819">
<ele>1012</ele>
<time>2014-03-08T12:27:09Z</time>
</trkpt>
<trkpt lat="37.8280939" lon="-1.30502577">
<ele>1013</ele>
<time>2014-03-08T12:27:11Z</time>
</trkpt>
<trkpt lat="37.82806214" lon="-1.3050589">
<ele>1014</ele>
<time>2014-03-08T12:27:13Z</time>
</trkpt>
<trkpt lat="37.82803403" lon="-1.30508549">
<ele>1014</ele>
<time>2014-03-08T12:27:15Z</time>
</trkpt>
<trkpt lat="37.82803906" lon="-1.30503609">
<ele>1013</ele>
<time>2014-03-08T12:27:17Z</time>
</trkpt>
<trkpt lat="37.82805829" lon="-1.30494511">
<ele>1012</ele>
<time>2014-03-08T12:27:19Z</time>
</trkpt>
<trkpt lat="37.82805526" lon="-1.30488356">
<ele>1012</ele>
<time>2014-03-08T12:27:21Z</time>
</trkpt>
<trkpt lat="37.82804256" lon="-1.30480855">
<ele>1012</ele>
<time>2014-03-08T12:27:23Z</time>
</trkpt>
<trkpt lat="37.8280057" lon="-1.30473086">
<ele>1013</ele>
<time>2014-03-08T12:27:25Z</time>
</trkpt>
<trkpt lat="37.82786061" lon="-1.30477589">
<ele>1021</ele>
<time>2014-03-08T12:27:27Z</time>
</trkpt>
<trkpt lat="37.82775821" lon="-1.30479505">
<ele>1024</ele>
<time>2014-03-08T12:27:29Z</time>
</trkpt>
<trkpt lat="37.82767687" lon="-1.30482432">
<ele>1024</ele>
<time>2014-03-08T12:27:31Z</time>
</trkpt>
<trkpt lat="37.82755164" lon="-1.30488863">
<ele>1027</ele>
<time>2014-03-08T12:27:33Z</time>
</trkpt>
<trkpt lat="37.82745023" lon="-1.30491174">
<ele>1028</ele>
<time>2014-03-08T12:27:35Z</time>
</trkpt>
<trkpt lat="37.8273472" lon="-1.30493563">
<ele>1029</ele>
<time>2014-03-08T12:27:37Z</time>
</trkpt>
<trkpt lat="37.82721576" lon="-1.30495053">
<ele>1040</ele>
<time>2014-03-08T12:27:39Z</time>
</trkpt>
<trkpt lat="37.82713018" lon="-1.30490728">
<ele>1046</ele>
<time>2014-03-08T12:27:41Z</time>
</trkpt>
<trkpt lat="37.82702145" lon="-1.30486504">
<ele>1048</ele>
<time>2014-03-08T12:27:43Z</time>
</trkpt>
<trkpt lat="37.82689625" lon="-1.30481649">
<ele>1056</ele>
<time>2014-03-08T12:27:45Z</time>
</trkpt>
<trkpt lat="37.82678686" lon="-1.30483685">
<ele>1062</ele>
<time>2014-03-08T12:27:47Z</time>
</trkpt>
<trkpt lat="37.82668484" lon="-1.30483346">
<ele>1063</ele>
<time>2014-03-08T12:27:49Z</time>
</trkpt>
<trkpt lat="37.82659115" lon="-1.30482878">
<ele>1065</ele>
<time>2014-03-08T12:27:51Z</time>
</trkpt>
<trkpt lat="37.82643954" lon="-1.30486805">
<ele>1066</ele>
<time>2014-03-08T12:27:53Z</time>
</trkpt>
<trkpt lat="37.82634866" lon="-1.30492297">
<ele>1069</ele>
<time>2014-03-08T12:27:55Z</time>
</trkpt>
<trkpt lat="37.82627867" lon="-1.30504029">
<ele>1069</ele>
<time>2014-03-08T12:27:57Z</time>
</trkpt>
<trkpt lat="37.82616858" lon="-1.30512206">
<ele>1068</ele>
<time>2014-03-08T12:27:59Z</time>
</trkpt>
<trkpt lat="37.82606838" lon="-1.30520437">
<ele>1064</ele>
<time>2014-03-08T12:28:01Z</time>
</trkpt>
<trkpt lat="37.82599329" lon="-1.30526714">
<ele>1059</ele>
<time>2014-03-08T12:28:03Z</time>
</trkpt>
<trkpt lat="37.82584314" lon="-1.3054001">
<ele>1062</ele>
<time>2014-03-08T12:28:05Z</time>
</trkpt>
<trkpt lat="37.82574688" lon="-1.30556764">
<ele>1061</ele>
<time>2014-03-08T12:28:07Z</time>
</trkpt>
<trkpt lat="37.82566615" lon="-1.30580523">
<ele>1056</ele>
<time>2014-03-08T12:28:09Z</time>
</trkpt>
<trkpt lat="37.82558133" lon="-1.30601437">
<ele>1051</ele>
<time>2014-03-08T12:28:11Z</time>
</trkpt>
<trkpt lat="37.82548575" lon="-1.30623099">
<ele>1046</ele>
<time>2014-03-08T12:28:13Z</time>
</trkpt>
<trkpt lat="37.82539702" lon="-1.30648486">
<ele>1042</ele>
<time>2014-03-08T12:28:15Z</time>
</trkpt>
<trkpt lat="37.82532029" lon="-1.30673458">
<ele>1041</ele>
<time>2014-03-08T12:28:17Z</time>
</trkpt>
<trkpt lat="37.82522221" lon="-1.30694746">
<ele>1040</ele>
<time>2014-03-08T12:28:19Z</time>
</trkpt>
<trkpt lat="37.82514615" lon="-1.30718489">
<ele>1036</ele>
<time>2014-03-08T12:28:21Z</time>
</trkpt>
<trkpt lat="37.82508278" lon="-1.30738241">
<ele>1032</ele>
<time>2014-03-08T12:28:23Z</time>
</trkpt>
<trkpt lat="37.82502186" lon="-1.30759548">
<ele>1028</ele>
<time>2014-03-08T12:28:25Z</time>
</trkpt>
<trkpt lat="37.82494102" lon="-1.30783714">
<ele>1023</ele>
<time>2014-03-08T12:28:27Z</time>
</trkpt>
<trkpt lat="37.82485998" lon="-1.30807524">
<ele>1022</ele>
<time>2014-03-08T12:28:29Z</time>
</trkpt>
<trkpt lat="37.82478442" lon="-1.30831676">
<ele>1021</ele>
<time>2014-03-08T12:28:31Z</time>
</trkpt>
<trkpt lat="37.82472608" lon="-1.30860243">
<ele>1021</ele>
<time>2014-03-08T12:28:33Z</time>
</trkpt>
<trkpt lat="37.82469678" lon="-1.30887805">
<ele>1021</ele>
<time>2014-03-08T12:28:35Z</time>
</trkpt>
<trkpt lat="37.82464849" lon="-1.30914401">
<ele>1021</ele>
<time>2014-03-08T12:28:37Z</time>
</trkpt>
<trkpt lat="37.82457795" lon="-1.30936804">
<ele>1020</ele>
<time>2014-03-08T12:28:39Z</time>
</trkpt>
<trkpt lat="37.82452591" lon="-1.30958633">
<ele>1020</ele>
<time>2014-03-08T12:28:41Z</time>
</trkpt>
<trkpt lat="37.82441437" lon="-1.30977172">
<ele>1020</ele>
<time>2014-03-08T12:28:43Z</time>
</trkpt>
<trkpt lat="37.8243153" lon="-1.30990356">
<ele>1024</ele>
<time>2014-03-08T12:28:45Z</time>
</trkpt>
<trkpt lat="37.82423574" lon="-1.31008014">
<ele>1030</ele>
<time>2014-03-08T12:28:47Z</time>
</trkpt>
<trkpt lat="37.82409979" lon="-1.31021679">
<ele>1027</ele>
<time>2014-03-08T12:28:49Z</time>
</trkpt>
<trkpt lat="37.82396544" lon="-1.31037402">
<ele>1027</ele>
<time>2014-03-08T12:28:51Z</time>
</trkpt>
<trkpt lat="37.82386483" lon="-1.31057393">
<ele>1028</ele>
<time>2014-03-08T12:28:53Z</time>
</trkpt>
<trkpt lat="37.82369713" lon="-1.31099303">
<ele>1021</ele>
<time>2014-03-08T12:28:57Z</time>
</trkpt>
<trkpt lat="37.82356857" lon="-1.31119322">
<ele>1020</ele>
<time>2014-03-08T12:28:59Z</time>
</trkpt>
<trkpt lat="37.82350096" lon="-1.31130626">
<ele>1020</ele>
<time>2014-03-08T12:29:01Z</time>
</trkpt>
<trkpt lat="37.82344104" lon="-1.31144819">
<ele>1019</ele>
<time>2014-03-08T12:29:03Z</time>
</trkpt>
<trkpt lat="37.82333643" lon="-1.31171573">
<ele>1018</ele>
<time>2014-03-08T12:29:05Z</time>
</trkpt>
<trkpt lat="37.82326129" lon="-1.31190641">
<ele>1019</ele>
<time>2014-03-08T12:29:07Z</time>
</trkpt>
<trkpt lat="37.82323691" lon="-1.31207802">
<ele>1018</ele>
<time>2014-03-08T12:29:09Z</time>
</trkpt>
<trkpt lat="37.82316414" lon="-1.31231231">
<ele>1015</ele>
<time>2014-03-08T12:29:11Z</time>
</trkpt>
<trkpt lat="37.82307456" lon="-1.31254709">
<ele>1016</ele>
<time>2014-03-08T12:29:13Z</time>
</trkpt>
<trkpt lat="37.82300846" lon="-1.31273336">
<ele>1018</ele>
<time>2014-03-08T12:29:15Z</time>
</trkpt>
<trkpt lat="37.82296127" lon="-1.31289393">
<ele>1017</ele>
<time>2014-03-08T12:29:17Z</time>
</trkpt>
<trkpt lat="37.82289863" lon="-1.31309518">
<ele>1017</ele>
<time>2014-03-08T12:29:19Z</time>
</trkpt>
<trkpt lat="37.82284006" lon="-1.31328923">
<ele>1015</ele>
<time>2014-03-08T12:29:21Z</time>
</trkpt>
<trkpt lat="37.82276784" lon="-1.31346172">
<ele>1012</ele>
<time>2014-03-08T12:29:23Z</time>
</trkpt>
<trkpt lat="37.82274429" lon="-1.31364866">
<ele>1011</ele>
<time>2014-03-08T12:29:25Z</time>
</trkpt>
<trkpt lat="37.82270434" lon="-1.31385001">
<ele>1012</ele>
<time>2014-03-08T12:29:27Z</time>
</trkpt>
<trkpt lat="37.82267521" lon="-1.31410656">
<ele>1010</ele>
<time>2014-03-08T12:29:29Z</time>
</trkpt>
<trkpt lat="37.82265068" lon="-1.31430758">
<ele>1007</ele>
<time>2014-03-08T12:29:31Z</time>
</trkpt>
<trkpt lat="37.8226452" lon="-1.31451723">
<ele>1003</ele>
<time>2014-03-08T12:29:33Z</time>
</trkpt>
<trkpt lat="37.82261954" lon="-1.31471893">
<ele>1000</ele>
<time>2014-03-08T12:29:35Z</time>
</trkpt>
<trkpt lat="37.82259899" lon="-1.31493067">
<ele>998</ele>
<time>2014-03-08T12:29:37Z</time>
</trkpt>
<trkpt lat="37.82258604" lon="-1.31510713">
<ele>993</ele>
<time>2014-03-08T12:29:39Z</time>
</trkpt>
<trkpt lat="37.82255853" lon="-1.31531646">
<ele>990</ele>
<time>2014-03-08T12:29:41Z</time>
</trkpt>
<trkpt lat="37.82252173" lon="-1.31550953">
<ele>985</ele>
<time>2014-03-08T12:29:43Z</time>
</trkpt>
<trkpt lat="37.82249256" lon="-1.31570131">
<ele>982</ele>
<time>2014-03-08T12:29:45Z</time>
</trkpt>
<trkpt lat="37.82246803" lon="-1.31589703">
<ele>976</ele>
<time>2014-03-08T12:29:47Z</time>
</trkpt>
<trkpt lat="37.82246471" lon="-1.31612785">
<ele>973</ele>
<time>2014-03-08T12:29:49Z</time>
</trkpt>
<trkpt lat="37.82247745" lon="-1.3163404">
<ele>972</ele>
<time>2014-03-08T12:29:51Z</time>
</trkpt>
<trkpt lat="37.82249248" lon="-1.31657653">
<ele>971</ele>
<time>2014-03-08T12:29:53Z</time>
</trkpt>
<trkpt lat="37.82250671" lon="-1.31683176">
<ele>971</ele>
<time>2014-03-08T12:29:55Z</time>
</trkpt>
<trkpt lat="37.8225227" lon="-1.31704823">
<ele>971</ele>
<time>2014-03-08T12:29:57Z</time>
</trkpt>
<trkpt lat="37.82254193" lon="-1.31723736">
<ele>969</ele>
<time>2014-03-08T12:29:59Z</time>
</trkpt>
<trkpt lat="37.82256315" lon="-1.31748389">
<ele>965</ele>
<time>2014-03-08T12:30:01Z</time>
</trkpt>
<trkpt lat="37.82258367" lon="-1.3177465">
<ele>964</ele>
<time>2014-03-08T12:30:03Z</time>
</trkpt>
<trkpt lat="37.82260438" lon="-1.31797794">
<ele>965</ele>
<time>2014-03-08T12:30:05Z</time>
</trkpt>
<trkpt lat="37.82262747" lon="-1.31820839">
<ele>965</ele>
<time>2014-03-08T12:30:07Z</time>
</trkpt>
<trkpt lat="37.82264466" lon="-1.31845545">
<ele>964</ele>
<time>2014-03-08T12:30:09Z</time>
</trkpt>
<trkpt lat="37.82263827" lon="-1.31868175">
<ele>964</ele>
<time>2014-03-08T12:30:11Z</time>
</trkpt>
<trkpt lat="37.82262889" lon="-1.31885225">
<ele>962</ele>
<time>2014-03-08T12:30:13Z</time>
</trkpt>
<trkpt lat="37.82259858" lon="-1.31905856">
<ele>958</ele>
<time>2014-03-08T12:30:15Z</time>
</trkpt>
<trkpt lat="37.82256401" lon="-1.3192907">
<ele>957</ele>
<time>2014-03-08T12:30:17Z</time>
</trkpt>
<trkpt lat="37.82254954" lon="-1.3194699">
<ele>958</ele>
<time>2014-03-08T12:30:19Z</time>
</trkpt>
<trkpt lat="37.8225545" lon="-1.3196452">
<ele>956</ele>
<time>2014-03-08T12:30:21Z</time>
</trkpt>
<trkpt lat="37.82252646" lon="-1.31984789">
<ele>956</ele>
<time>2014-03-08T12:30:23Z</time>
</trkpt>
<trkpt lat="37.82249758" lon="-1.3200497">
<ele>957</ele>
<time>2014-03-08T12:30:25Z</time>
</trkpt>
<trkpt lat="37.82248732" lon="-1.32024328">
<ele>956</ele>
<time>2014-03-08T12:30:27Z</time>
</trkpt>
<trkpt lat="37.82247143" lon="-1.32045693">
<ele>955</ele>
<time>2014-03-08T12:30:29Z</time>
</trkpt>
<trkpt lat="37.82246002" lon="-1.32064222">
<ele>955</ele>
<time>2014-03-08T12:30:31Z</time>
</trkpt>
<trkpt lat="37.82242113" lon="-1.32084821">
<ele>952</ele>
<time>2014-03-08T12:30:33Z</time>
</trkpt>
<trkpt lat="37.82236708" lon="-1.32106945">
<ele>947</ele>
<time>2014-03-08T12:30:35Z</time>
</trkpt>
<trkpt lat="37.82231617" lon="-1.3212825">
<ele>945</ele>
<time>2014-03-08T12:30:37Z</time>
</trkpt>
<trkpt lat="37.82228763" lon="-1.32147425">
<ele>942</ele>
<time>2014-03-08T12:30:39Z</time>
</trkpt>
<trkpt lat="37.82225984" lon="-1.32171361">
<ele>938</ele>
<time>2014-03-08T12:30:41Z</time>
</trkpt>
<trkpt lat="37.82224562" lon="-1.32195934">
<ele>937</ele>
<time>2014-03-08T12:30:43Z</time>
</trkpt>
<trkpt lat="37.82223771" lon="-1.32220276">
<ele>935</ele>
<time>2014-03-08T12:30:45Z</time>
</trkpt>
<trkpt lat="37.82223188" lon="-1.32245472">
<ele>932</ele>
<time>2014-03-08T12:30:47Z</time>
</trkpt>
<trkpt lat="37.82221868" lon="-1.32272902">
<ele>930</ele>
<time>2014-03-08T12:30:49Z</time>
</trkpt>
<trkpt lat="37.82220635" lon="-1.3229772">
<ele>929</ele>
<time>2014-03-08T12:30:51Z</time>
</trkpt>
<trkpt lat="37.82220148" lon="-1.32322824">
<ele>924</ele>
<time>2014-03-08T12:30:53Z</time>
</trkpt>
<trkpt lat="37.82220042" lon="-1.32350071">
<ele>923</ele>
<time>2014-03-08T12:30:55Z</time>
</trkpt>
<trkpt lat="37.82217866" lon="-1.32374947">
<ele>919</ele>
<time>2014-03-08T12:30:57Z</time>
</trkpt>
<trkpt lat="37.82214633" lon="-1.3240247">
<ele>916</ele>
<time>2014-03-08T12:30:59Z</time>
</trkpt>
<trkpt lat="37.82215154" lon="-1.32431011">
<ele>917</ele>
<time>2014-03-08T12:31:01Z</time>
</trkpt>
<trkpt lat="37.82214705" lon="-1.32453459">
<ele>918</ele>
<time>2014-03-08T12:31:03Z</time>
</trkpt>
<trkpt lat="37.82212436" lon="-1.32476076">
<ele>917</ele>
<time>2014-03-08T12:31:05Z</time>
</trkpt>
<trkpt lat="37.82209445" lon="-1.32499216">
<ele>918</ele>
<time>2014-03-08T12:31:07Z</time>
</trkpt>
<trkpt lat="37.82205693" lon="-1.32521027">
<ele>919</ele>
<time>2014-03-08T12:31:09Z</time>
</trkpt>
<trkpt lat="37.82203212" lon="-1.32541798">
<ele>919</ele>
<time>2014-03-08T12:31:11Z</time>
</trkpt>
<trkpt lat="37.82201642" lon="-1.32561022">
<ele>918</ele>
<time>2014-03-08T12:31:13Z</time>
</trkpt>
<trkpt lat="37.82201294" lon="-1.32579872">
<ele>915</ele>
<time>2014-03-08T12:31:15Z</time>
</trkpt>
<trkpt lat="37.8220253" lon="-1.32599981">
<ele>913</ele>
<time>2014-03-08T12:31:17Z</time>
</trkpt>
<trkpt lat="37.82199913" lon="-1.32619429">
<ele>914</ele>
<time>2014-03-08T12:31:19Z</time>
</trkpt>
<trkpt lat="37.821962" lon="-1.32636983">
<ele>917</ele>
<time>2014-03-08T12:31:21Z</time>
</trkpt>
<trkpt lat="37.8219205" lon="-1.32652548">
<ele>920</ele>
<time>2014-03-08T12:31:23Z</time>
</trkpt>
<trkpt lat="37.8218127" lon="-1.32666199">
<ele>917</ele>
<time>2014-03-08T12:31:25Z</time>
</trkpt>
<trkpt lat="37.82174418" lon="-1.32677607">
<ele>917</ele>
<time>2014-03-08T12:31:27Z</time>
</trkpt>
<trkpt lat="37.82167826" lon="-1.32687551">
<ele>915</ele>
<time>2014-03-08T12:31:29Z</time>
</trkpt>
<trkpt lat="37.82155272" lon="-1.32691244">
<ele>917</ele>
<time>2014-03-08T12:31:31Z</time>
</trkpt>
<trkpt lat="37.82146296" lon="-1.32693944">
<ele>920</ele>
<time>2014-03-08T12:31:33Z</time>
</trkpt>
<trkpt lat="37.82139437" lon="-1.32697895">
<ele>919</ele>
<time>2014-03-08T12:31:35Z</time>
</trkpt>
<trkpt lat="37.82127384" lon="-1.3269856">
<ele>917</ele>
<time>2014-03-08T12:31:37Z</time>
</trkpt>
<trkpt lat="37.82116874" lon="-1.32696709">
<ele>916</ele>
<time>2014-03-08T12:31:39Z</time>
</trkpt>
<trkpt lat="37.82110829" lon="-1.32687982">
<ele>916</ele>
<time>2014-03-08T12:31:41Z</time>
</trkpt>
<trkpt lat="37.82106268" lon="-1.32673953">
<ele>920</ele>
<time>2014-03-08T12:31:43Z</time>
</trkpt>
<trkpt lat="37.82102007" lon="-1.32663753">
<ele>921</ele>
<time>2014-03-08T12:31:45Z</time>
</trkpt>
<trkpt lat="37.82102576" lon="-1.32659078">
<ele>919</ele>
<time>2014-03-08T12:31:47Z</time>
</trkpt>
<trkpt lat="37.82104157" lon="-1.32647872">
<ele>917</ele>
<time>2014-03-08T12:31:49Z</time>
</trkpt>
<trkpt lat="37.82107274" lon="-1.32637666">
<ele>917</ele>
<time>2014-03-08T12:31:51Z</time>
</trkpt>
<trkpt lat="37.82112914" lon="-1.32625547">
<ele>917</ele>
<time>2014-03-08T12:31:53Z</time>
</trkpt>
<trkpt lat="37.82122247" lon="-1.32611994">
<ele>921</ele>
<time>2014-03-08T12:31:55Z</time>
</trkpt>
<trkpt lat="37.82131084" lon="-1.32602178">
<ele>929</ele>
<time>2014-03-08T12:31:57Z</time>
</trkpt>
<trkpt lat="37.82137446" lon="-1.32593802">
<ele>933</ele>
<time>2014-03-08T12:31:59Z</time>
</trkpt>
<trkpt lat="37.82147612" lon="-1.32583541">
<ele>937</ele>
<time>2014-03-08T12:32:01Z</time>
</trkpt>
<trkpt lat="37.82150823" lon="-1.32571382">
<ele>944</ele>
<time>2014-03-08T12:32:03Z</time>
</trkpt>
<trkpt lat="37.82151855" lon="-1.32562593">
<ele>950</ele>
<time>2014-03-08T12:32:05Z</time>
</trkpt>
<trkpt lat="37.82154043" lon="-1.32551419">
<ele>956</ele>
<time>2014-03-08T12:32:07Z</time>
</trkpt>
<trkpt lat="37.82153673" lon="-1.32538299">
<ele>963</ele>
<time>2014-03-08T12:32:09Z</time>
</trkpt>
<trkpt lat="37.82151381" lon="-1.32533185">
<ele>969</ele>
<time>2014-03-08T12:32:11Z</time>
</trkpt>
<trkpt lat="37.8214835" lon="-1.32525881">
<ele>970</ele>
<time>2014-03-08T12:32:13Z</time>
</trkpt>
<trkpt lat="37.82144668" lon="-1.32514954">
<ele>970</ele>
<time>2014-03-08T12:32:15Z</time>
</trkpt>
<trkpt lat="37.8214469" lon="-1.32506165">
<ele>971</ele>
<time>2014-03-08T12:32:17Z</time>
</trkpt>
<trkpt lat="37.82145937" lon="-1.32499893">
<ele>972</ele>
<time>2014-03-08T12:32:19Z</time>
</trkpt>
<trkpt lat="37.82149711" lon="-1.32492934">
<ele>975</ele>
<time>2014-03-08T12:32:21Z</time>
</trkpt>
<trkpt lat="37.82157508" lon="-1.32482718">
<ele>979</ele>
<time>2014-03-08T12:32:23Z</time>
</trkpt>
<trkpt lat="37.82163775" lon="-1.32476411">
<ele>983</ele>
<time>2014-03-08T12:32:25Z</time>
</trkpt>
<trkpt lat="37.82169998" lon="-1.32467207">
<ele>986</ele>
<time>2014-03-08T12:32:27Z</time>
</trkpt>
<trkpt lat="37.82177166" lon="-1.32455382">
<ele>988</ele>
<time>2014-03-08T12:32:29Z</time>
</trkpt>
<trkpt lat="37.82186093" lon="-1.32450285">
<ele>987</ele>
<time>2014-03-08T12:32:31Z</time>
</trkpt>
<trkpt lat="37.82195972" lon="-1.32446231">
<ele>988</ele>
<time>2014-03-08T12:32:33Z</time>
</trkpt>
<trkpt lat="37.82205842" lon="-1.32436847">
<ele>991</ele>
<time>2014-03-08T12:32:35Z</time>
</trkpt>
<trkpt lat="37.82216092" lon="-1.32430925">
<ele>993</ele>
<time>2014-03-08T12:32:37Z</time>
</trkpt>
<trkpt lat="37.82225018" lon="-1.32424979">
<ele>996</ele>
<time>2014-03-08T12:32:39Z</time>
</trkpt>
<trkpt lat="37.82233999" lon="-1.32420766">
<ele>1000</ele>
<time>2014-03-08T12:32:41Z</time>
</trkpt>
<trkpt lat="37.82242053" lon="-1.32416937">
<ele>1001</ele>
<time>2014-03-08T12:32:43Z</time>
</trkpt>
<trkpt lat="37.82252937" lon="-1.32410832">
<ele>1000</ele>
<time>2014-03-08T12:32:45Z</time>
</trkpt>
<trkpt lat="37.82266588" lon="-1.32403251">
<ele>1001</ele>
<time>2014-03-08T12:32:47Z</time>
</trkpt>
<trkpt lat="37.82278088" lon="-1.32402744">
<ele>1001</ele>
<time>2014-03-08T12:32:49Z</time>
</trkpt>
<trkpt lat="37.82293674" lon="-1.32400777">
<ele>1000</ele>
<time>2014-03-08T12:32:51Z</time>
</trkpt>
<trkpt lat="37.82309404" lon="-1.32407724">
<ele>998</ele>
<time>2014-03-08T12:32:53Z</time>
</trkpt>
<trkpt lat="37.82325782" lon="-1.32418829">
<ele>998</ele>
<time>2014-03-08T12:32:55Z</time>
</trkpt>
<trkpt lat="37.82335087" lon="-1.3244172">
<ele>999</ele>
<time>2014-03-08T12:32:57Z</time>
</trkpt>
<trkpt lat="37.82345057" lon="-1.32461208">
<ele>1000</ele>
<time>2014-03-08T12:32:59Z</time>
</trkpt>
<trkpt lat="37.82345422" lon="-1.32483031">
<ele>1000</ele>
<time>2014-03-08T12:33:01Z</time>
</trkpt>
<trkpt lat="37.82348949" lon="-1.32509205">
<ele>1000</ele>
<time>2014-03-08T12:33:03Z</time>
</trkpt>
<trkpt lat="37.82348599" lon="-1.32536975">
<ele>1001</ele>
<time>2014-03-08T12:33:05Z</time>
</trkpt>
<trkpt lat="37.82348076" lon="-1.32558007">
<ele>1000</ele>
<time>2014-03-08T12:33:07Z</time>
</trkpt>
<trkpt lat="37.82347809" lon="-1.32581698">
<ele>998</ele>
<time>2014-03-08T12:33:09Z</time>
</trkpt>
<trkpt lat="37.8234435" lon="-1.32608488">
<ele>995</ele>
<time>2014-03-08T12:33:11Z</time>
</trkpt>
<trkpt lat="37.82339908" lon="-1.32638403">
<ele>996</ele>
<time>2014-03-08T12:33:13Z</time>
</trkpt>
<trkpt lat="37.82336524" lon="-1.32664004">
<ele>999</ele>
<time>2014-03-08T12:33:15Z</time>
</trkpt>
<trkpt lat="37.82334123" lon="-1.32685836">
<ele>1002</ele>
<time>2014-03-08T12:33:17Z</time>
</trkpt>
<trkpt lat="37.82331806" lon="-1.32708035">
<ele>1007</ele>
<time>2014-03-08T12:33:19Z</time>
</trkpt>
<trkpt lat="37.82325998" lon="-1.32730994">
<ele>1008</ele>
<time>2014-03-08T12:33:21Z</time>
</trkpt>
<trkpt lat="37.82320618" lon="-1.32745827">
<ele>1012</ele>
<time>2014-03-08T12:33:23Z</time>
</trkpt>
<trkpt lat="37.82317226" lon="-1.32763636">
<ele>1012</ele>
<time>2014-03-08T12:33:25Z</time>
</trkpt>
<trkpt lat="37.82311072" lon="-1.32786121">
<ele>1012</ele>
<time>2014-03-08T12:33:27Z</time>
</trkpt>
<trkpt lat="37.82303746" lon="-1.32800869">
<ele>1013</ele>
<time>2014-03-08T12:33:29Z</time>
</trkpt>
<trkpt lat="37.82296115" lon="-1.32812131">
<ele>1013</ele>
<time>2014-03-08T12:33:31Z</time>
</trkpt>
<trkpt lat="37.82287872" lon="-1.3283103">
<ele>1014</ele>
<time>2014-03-08T12:33:33Z</time>
</trkpt>
<trkpt lat="37.82280419" lon="-1.3285102">
<ele>1021</ele>
<time>2014-03-08T12:33:35Z</time>
</trkpt>
<trkpt lat="37.82275849" lon="-1.3287022">
<ele>1024</ele>
<time>2014-03-08T12:33:37Z</time>
</trkpt>
<trkpt lat="37.82267059" lon="-1.32894492">
<ele>1026</ele>
<time>2014-03-08T12:33:39Z</time>
</trkpt>
<trkpt lat="37.82258407" lon="-1.32915402">
<ele>1031</ele>
<time>2014-03-08T12:33:41Z</time>
</trkpt>
<trkpt lat="37.82252051" lon="-1.32933489">
<ele>1034</ele>
<time>2014-03-08T12:33:43Z</time>
</trkpt>
<trkpt lat="37.82245995" lon="-1.32952452">
<ele>1033</ele>
<time>2014-03-08T12:33:45Z</time>
</trkpt>
<trkpt lat="37.82244607" lon="-1.32968959">
<ele>1035</ele>
<time>2014-03-08T12:33:47Z</time>
</trkpt>
<trkpt lat="37.82241834" lon="-1.3298276">
<ele>1033</ele>
<time>2014-03-08T12:33:49Z</time>
</trkpt>
<trkpt lat="37.8223845" lon="-1.32997228">
<ele>1028</ele>
<time>2014-03-08T12:33:51Z</time>
</trkpt>
<trkpt lat="37.82229517" lon="-1.33016781">
<ele>1032</ele>
<time>2014-03-08T12:33:53Z</time>
</trkpt>
<trkpt lat="37.82223286" lon="-1.33031167">
<ele>1032</ele>
<time>2014-03-08T12:33:55Z</time>
</trkpt>
<trkpt lat="37.82220095" lon="-1.33047255">
<ele>1032</ele>
<time>2014-03-08T12:33:57Z</time>
</trkpt>
<trkpt lat="37.82217947" lon="-1.33068191">
<ele>1031</ele>
<time>2014-03-08T12:33:59Z</time>
</trkpt>
<trkpt lat="37.82215347" lon="-1.3309092">
<ele>1032</ele>
<time>2014-03-08T12:34:01Z</time>
</trkpt>
<trkpt lat="37.82213863" lon="-1.33109586">
<ele>1033</ele>
<time>2014-03-08T12:34:03Z</time>
</trkpt>
<trkpt lat="37.82209563" lon="-1.33132687">
<ele>1034</ele>
<time>2014-03-08T12:34:05Z</time>
</trkpt>
<trkpt lat="37.82208804" lon="-1.33155613">
<ele>1036</ele>
<time>2014-03-08T12:34:07Z</time>
</trkpt>
<trkpt lat="37.8220808" lon="-1.33176538">
<ele>1038</ele>
<time>2014-03-08T12:34:09Z</time>
</trkpt>
<trkpt lat="37.82207309" lon="-1.33199466">
<ele>1038</ele>
<time>2014-03-08T12:34:11Z</time>
</trkpt>
<trkpt lat="37.82205572" lon="-1.33221422">
<ele>1040</ele>
<time>2014-03-08T12:34:13Z</time>
</trkpt>
<trkpt lat="37.82203335" lon="-1.33241981">
<ele>1041</ele>
<time>2014-03-08T12:34:15Z</time>
</trkpt>
<trkpt lat="37.82200728" lon="-1.33264673">
<ele>1039</ele>
<time>2014-03-08T12:34:17Z</time>
</trkpt>
<trkpt lat="37.82202356" lon="-1.33286564">
<ele>1040</ele>
<time>2014-03-08T12:34:19Z</time>
</trkpt>
<trkpt lat="37.82205243" lon="-1.33306105">
<ele>1041</ele>
<time>2014-03-08T12:34:21Z</time>
</trkpt>
<trkpt lat="37.82204732" lon="-1.33334593">
<ele>1043</ele>
<time>2014-03-08T12:34:23Z</time>
</trkpt>
<trkpt lat="37.8220376" lon="-1.33356254">
<ele>1044</ele>
<time>2014-03-08T12:34:25Z</time>
</trkpt>
<trkpt lat="37.82202689" lon="-1.33376284">
<ele>1046</ele>
<time>2014-03-08T12:34:27Z</time>
</trkpt>
<trkpt lat="37.8220172" lon="-1.33398843">
<ele>1046</ele>
<time>2014-03-08T12:34:29Z</time>
</trkpt>
<trkpt lat="37.82202424" lon="-1.33416921">
<ele>1047</ele>
<time>2014-03-08T12:34:31Z</time>
</trkpt>
<trkpt lat="37.82203883" lon="-1.33435142">
<ele>1048</ele>
<time>2014-03-08T12:34:33Z</time>
</trkpt>
<trkpt lat="37.82205648" lon="-1.33460479">
<ele>1049</ele>
<time>2014-03-08T12:34:35Z</time>
</trkpt>
<trkpt lat="37.82207594" lon="-1.33479987">
<ele>1052</ele>
<time>2014-03-08T12:34:37Z</time>
</trkpt>
<trkpt lat="37.82209786" lon="-1.33500464">
<ele>1054</ele>
<time>2014-03-08T12:34:39Z</time>
</trkpt>
<trkpt lat="37.82214052" lon="-1.33521456">
<ele>1056</ele>
<time>2014-03-08T12:34:41Z</time>
</trkpt>
<trkpt lat="37.82217139" lon="-1.3354227">
<ele>1055</ele>
<time>2014-03-08T12:34:43Z</time>
</trkpt>
<trkpt lat="37.82215481" lon="-1.33563176">
<ele>1054</ele>
<time>2014-03-08T12:34:45Z</time>
</trkpt>
<trkpt lat="37.82214539" lon="-1.33581128">
<ele>1056</ele>
<time>2014-03-08T12:34:47Z</time>
</trkpt>
<trkpt lat="37.82210885" lon="-1.33603518">
<ele>1060</ele>
<time>2014-03-08T12:34:49Z</time>
</trkpt>
<trkpt lat="37.82212924" lon="-1.33622444">
<ele>1063</ele>
<time>2014-03-08T12:34:51Z</time>
</trkpt>
<trkpt lat="37.82214283" lon="-1.33638325">
<ele>1064</ele>
<time>2014-03-08T12:34:53Z</time>
</trkpt>
<trkpt lat="37.82212592" lon="-1.33658526">
<ele>1067</ele>
<time>2014-03-08T12:34:55Z</time>
</trkpt>
<trkpt lat="37.82216129" lon="-1.3367366">
<ele>1063</ele>
<time>2014-03-08T12:34:57Z</time>
</trkpt>
<trkpt lat="37.82222023" lon="-1.33691976">
<ele>1063</ele>
<time>2014-03-08T12:34:59Z</time>
</trkpt>
<trkpt lat="37.82219051" lon="-1.33716217">
<ele>1063</ele>
<time>2014-03-08T12:35:01Z</time>
</trkpt>
<trkpt lat="37.8221593" lon="-1.33739308">
<ele>1064</ele>
<time>2014-03-08T12:35:03Z</time>
</trkpt>
<trkpt lat="37.8221981" lon="-1.33750848">
<ele>1063</ele>
<time>2014-03-08T12:35:05Z</time>
</trkpt>
<trkpt lat="37.82220182" lon="-1.33767098">
<ele>1061</ele>
<time>2014-03-08T12:35:07Z</time>
</trkpt>
<trkpt lat="37.82216895" lon="-1.33787099">
<ele>1064</ele>
<time>2014-03-08T12:35:09Z</time>
</trkpt>
<trkpt lat="37.82219319" lon="-1.3380939">
<ele>1069</ele>
<time>2014-03-08T12:35:11Z</time>
</trkpt>
<trkpt lat="37.82226405" lon="-1.33831684">
<ele>1069</ele>
<time>2014-03-08T12:35:13Z</time>
</trkpt>
<trkpt lat="37.82232953" lon="-1.3385355">
<ele>1069</ele>
<time>2014-03-08T12:35:15Z</time>
</trkpt>
<trkpt lat="37.8223446" lon="-1.33878557">
<ele>1070</ele>
<time>2014-03-08T12:35:17Z</time>
</trkpt>
<trkpt lat="37.82232281" lon="-1.33897796">
<ele>1069</ele>
<time>2014-03-08T12:35:19Z</time>
</trkpt>
<trkpt lat="37.82230054" lon="-1.33923745">
<ele>1066</ele>
<time>2014-03-08T12:35:21Z</time>
</trkpt>
<trkpt lat="37.82234665" lon="-1.33947228">
<ele>1065</ele>
<time>2014-03-08T12:35:23Z</time>
</trkpt>
<trkpt lat="37.82241455" lon="-1.33968382">
<ele>1067</ele>
<time>2014-03-08T12:35:25Z</time>
</trkpt>
<trkpt lat="37.82246608" lon="-1.33991282">
<ele>1065</ele>
<time>2014-03-08T12:35:27Z</time>
</trkpt>
<trkpt lat="37.8225149" lon="-1.3401606">
<ele>1065</ele>
<time>2014-03-08T12:35:29Z</time>
</trkpt>
<trkpt lat="37.82257403" lon="-1.34036303">
<ele>1064</ele>
<time>2014-03-08T12:35:31Z</time>
</trkpt>
<trkpt lat="37.8226376" lon="-1.34057802">
<ele>1059</ele>
<time>2014-03-08T12:35:33Z</time>
</trkpt>
<trkpt lat="37.82270156" lon="-1.340839">
<ele>1056</ele>
<time>2014-03-08T12:35:35Z</time>
</trkpt>
<trkpt lat="37.82278465" lon="-1.3410975">
<ele>1055</ele>
<time>2014-03-08T12:35:37Z</time>
</trkpt>
<trkpt lat="37.82290866" lon="-1.34129703">
<ele>1055</ele>
<time>2014-03-08T12:35:39Z</time>
</trkpt>
<trkpt lat="37.82302746" lon="-1.34154785">
<ele>1055</ele>
<time>2014-03-08T12:35:41Z</time>
</trkpt>
<trkpt lat="37.82316196" lon="-1.34181129">
<ele>1058</ele>
<time>2014-03-08T12:35:43Z</time>
</trkpt>
<trkpt lat="37.82326951" lon="-1.34199037">
<ele>1059</ele>
<time>2014-03-08T12:35:45Z</time>
</trkpt>
<trkpt lat="37.82336445" lon="-1.34221167">
<ele>1058</ele>
<time>2014-03-08T12:35:47Z</time>
</trkpt>
<trkpt lat="37.82345515" lon="-1.34243796">
<ele>1060</ele>
<time>2014-03-08T12:35:49Z</time>
</trkpt>
<trkpt lat="37.82353353" lon="-1.34261006">
<ele>1061</ele>
<time>2014-03-08T12:35:51Z</time>
</trkpt>
<trkpt lat="37.82360199" lon="-1.34285004">
<ele>1062</ele>
<time>2014-03-08T12:35:53Z</time>
</trkpt>
<trkpt lat="37.82366085" lon="-1.34309178">
<ele>1059</ele>
<time>2014-03-08T12:35:55Z</time>
</trkpt>
<trkpt lat="37.82370786" lon="-1.34333538">
<ele>1058</ele>
<time>2014-03-08T12:35:57Z</time>
</trkpt>
<trkpt lat="37.82374725" lon="-1.34358126">
<ele>1056</ele>
<time>2014-03-08T12:35:59Z</time>
</trkpt>
<trkpt lat="37.8237711" lon="-1.34381105">
<ele>1055</ele>
<time>2014-03-08T12:36:01Z</time>
</trkpt>
<trkpt lat="37.82384168" lon="-1.34402603">
<ele>1055</ele>
<time>2014-03-08T12:36:03Z</time>
</trkpt>
<trkpt lat="37.82394728" lon="-1.34422056">
<ele>1055</ele>
<time>2014-03-08T12:36:05Z</time>
</trkpt>
<trkpt lat="37.82403118" lon="-1.3444511">
<ele>1055</ele>
<time>2014-03-08T12:36:07Z</time>
</trkpt>
<trkpt lat="37.82410199" lon="-1.34467475">
<ele>1057</ele>
<time>2014-03-08T12:36:09Z</time>
</trkpt>
<trkpt lat="37.82417023" lon="-1.34486219">
<ele>1058</ele>
<time>2014-03-08T12:36:11Z</time>
</trkpt>
<trkpt lat="37.82424265" lon="-1.3450978">
<ele>1054</ele>
<time>2014-03-08T12:36:13Z</time>
</trkpt>
<trkpt lat="37.82431158" lon="-1.34534096">
<ele>1055</ele>
<time>2014-03-08T12:36:15Z</time>
</trkpt>
<trkpt lat="37.82436416" lon="-1.34554449">
<ele>1057</ele>
<time>2014-03-08T12:36:17Z</time>
</trkpt>
<trkpt lat="37.82442222" lon="-1.34574714">
<ele>1058</ele>
<time>2014-03-08T12:36:19Z</time>
</trkpt>
<trkpt lat="37.82447239" lon="-1.34599773">
<ele>1055</ele>
<time>2014-03-08T12:36:21Z</time>
</trkpt>
<trkpt lat="37.82450992" lon="-1.34619938">
<ele>1054</ele>
<time>2014-03-08T12:36:23Z</time>
</trkpt>
<trkpt lat="37.82456727" lon="-1.34640677">
<ele>1053</ele>
<time>2014-03-08T12:36:25Z</time>
</trkpt>
<trkpt lat="37.82461526" lon="-1.34661899">
<ele>1053</ele>
<time>2014-03-08T12:36:27Z</time>
</trkpt>
<trkpt lat="37.82468497" lon="-1.34683824">
<ele>1052</ele>
<time>2014-03-08T12:36:29Z</time>
</trkpt>
<trkpt lat="37.82474261" lon="-1.34709688">
<ele>1052</ele>
<time>2014-03-08T12:36:31Z</time>
</trkpt>
<trkpt lat="37.82471489" lon="-1.34731913">
<ele>1055</ele>
<time>2014-03-08T12:36:33Z</time>
</trkpt>
<trkpt lat="37.82468835" lon="-1.34752861">
<ele>1057</ele>
<time>2014-03-08T12:36:35Z</time>
</trkpt>
<trkpt lat="37.82462986" lon="-1.34770713">
<ele>1059</ele>
<time>2014-03-08T12:36:37Z</time>
</trkpt>
<trkpt lat="37.82456785" lon="-1.34786279">
<ele>1060</ele>
<time>2014-03-08T12:36:39Z</time>
</trkpt>
<trkpt lat="37.82448729" lon="-1.34797248">
<ele>1063</ele>
<time>2014-03-08T12:36:41Z</time>
</trkpt>
<trkpt lat="37.82442972" lon="-1.3480916">
<ele>1063</ele>
<time>2014-03-08T12:36:43Z</time>
</trkpt>
<trkpt lat="37.82432308" lon="-1.34825326">
<ele>1063</ele>
<time>2014-03-08T12:36:45Z</time>
</trkpt>
<trkpt lat="37.82427756" lon="-1.34837746">
<ele>1062</ele>
<time>2014-03-08T12:36:47Z</time>
</trkpt>
<trkpt lat="37.82422382" lon="-1.34852172">
<ele>1061</ele>
<time>2014-03-08T12:36:49Z</time>
</trkpt>
<trkpt lat="37.8241826" lon="-1.34863657">
<ele>1062</ele>
<time>2014-03-08T12:36:51Z</time>
</trkpt>
<trkpt lat="37.82410876" lon="-1.34869224">
<ele>1062</ele>
<time>2014-03-08T12:36:53Z</time>
</trkpt>
<trkpt lat="37.82405598" lon="-1.34876653">
<ele>1061</ele>
<time>2014-03-08T12:36:55Z</time>
</trkpt>
<trkpt lat="37.82399071" lon="-1.34884225">
<ele>1055</ele>
<time>2014-03-08T12:36:57Z</time>
</trkpt>
<trkpt lat="37.82390362" lon="-1.34878312">
<ele>1050</ele>
<time>2014-03-08T12:36:59Z</time>
</trkpt>
<trkpt lat="37.82385448" lon="-1.34874107">
<ele>1047</ele>
<time>2014-03-08T12:37:01Z</time>
</trkpt>
<trkpt lat="37.82394898" lon="-1.34864579">
<ele>1043</ele>
<time>2014-03-08T12:37:03Z</time>
</trkpt>
<trkpt lat="37.82403107" lon="-1.34851406">
<ele>1037</ele>
<time>2014-03-08T12:37:05Z</time>
</trkpt>
<trkpt lat="37.82414218" lon="-1.34841729">
<ele>1034</ele>
<time>2014-03-08T12:37:07Z</time>
</trkpt>
<trkpt lat="37.82431734" lon="-1.34837502">
<ele>1032</ele>
<time>2014-03-08T12:37:09Z</time>
</trkpt>
<trkpt lat="37.82450151" lon="-1.34838876">
<ele>1028</ele>
<time>2014-03-08T12:37:11Z</time>
</trkpt>
<trkpt lat="37.82472306" lon="-1.34846409">
<ele>1026</ele>
<time>2014-03-08T12:37:13Z</time>
</trkpt>
<trkpt lat="37.82489832" lon="-1.34864588">
<ele>1023</ele>
<time>2014-03-08T12:37:15Z</time>
</trkpt>
<trkpt lat="37.82503266" lon="-1.34887697">
<ele>1022</ele>
<time>2014-03-08T12:37:17Z</time>
</trkpt>
<trkpt lat="37.82514616" lon="-1.34910963">
<ele>1021</ele>
<time>2014-03-08T12:37:19Z</time>
</trkpt>
<trkpt lat="37.82524645" lon="-1.34934188">
<ele>1020</ele>
<time>2014-03-08T12:37:21Z</time>
</trkpt>
<trkpt lat="37.82534369" lon="-1.34960201">
<ele>1018</ele>
<time>2014-03-08T12:37:23Z</time>
</trkpt>
<trkpt lat="37.82542717" lon="-1.34985247">
<ele>1016</ele>
<time>2014-03-08T12:37:25Z</time>
</trkpt>
<trkpt lat="37.82552547" lon="-1.35012554">
<ele>1015</ele>
<time>2014-03-08T12:37:27Z</time>
</trkpt>
<trkpt lat="37.82562157" lon="-1.35042204">
<ele>1013</ele>
<time>2014-03-08T12:37:29Z</time>
</trkpt>
<trkpt lat="37.82570397" lon="-1.35070206">
<ele>1012</ele>
<time>2014-03-08T12:37:31Z</time>
</trkpt>
<trkpt lat="37.8257289" lon="-1.35097075">
<ele>1006</ele>
<time>2014-03-08T12:37:33Z</time>
</trkpt>
<trkpt lat="37.82580684" lon="-1.35124733">
<ele>1002</ele>
<time>2014-03-08T12:37:35Z</time>
</trkpt>
<trkpt lat="37.82588687" lon="-1.3515374">
<ele>1000</ele>
<time>2014-03-08T12:37:37Z</time>
</trkpt>
<trkpt lat="37.82599887" lon="-1.35175781">
<ele>996</ele>
<time>2014-03-08T12:37:39Z</time>
</trkpt>
<trkpt lat="37.82608755" lon="-1.35201597">
<ele>993</ele>
<time>2014-03-08T12:37:41Z</time>
</trkpt>
<trkpt lat="37.82612883" lon="-1.35226315">
<ele>989</ele>
<time>2014-03-08T12:37:43Z</time>
</trkpt>
<trkpt lat="37.82619071" lon="-1.35253959">
<ele>984</ele>
<time>2014-03-08T12:37:45Z</time>
</trkpt>
<trkpt lat="37.82627334" lon="-1.35283646">
<ele>981</ele>
<time>2014-03-08T12:37:47Z</time>
</trkpt>
<trkpt lat="37.8263498" lon="-1.35308722">
<ele>979</ele>
<time>2014-03-08T12:37:49Z</time>
</trkpt>
<trkpt lat="37.82642877" lon="-1.35334872">
<ele>976</ele>
<time>2014-03-08T12:37:51Z</time>
</trkpt>
<trkpt lat="37.82649724" lon="-1.35361285">
<ele>974</ele>
<time>2014-03-08T12:37:53Z</time>
</trkpt>
<trkpt lat="37.82658582" lon="-1.35387834">
<ele>971</ele>
<time>2014-03-08T12:37:55Z</time>
</trkpt>
<trkpt lat="37.82670445" lon="-1.35409988">
<ele>970</ele>
<time>2014-03-08T12:37:57Z</time>
</trkpt>
<trkpt lat="37.82683366" lon="-1.35427723">
<ele>965</ele>
<time>2014-03-08T12:37:59Z</time>
</trkpt>
<trkpt lat="37.82694823" lon="-1.35450419">
<ele>960</ele>
<time>2014-03-08T12:38:01Z</time>
</trkpt>
<trkpt lat="37.82708587" lon="-1.3547225">
<ele>957</ele>
<time>2014-03-08T12:38:03Z</time>
</trkpt>
<trkpt lat="37.82723313" lon="-1.35493855">
<ele>955</ele>
<time>2014-03-08T12:38:05Z</time>
</trkpt>
<trkpt lat="37.8273804" lon="-1.35515517">
<ele>953</ele>
<time>2014-03-08T12:38:07Z</time>
</trkpt>
<trkpt lat="37.82750673" lon="-1.35539166">
<ele>951</ele>
<time>2014-03-08T12:38:09Z</time>
</trkpt>
<trkpt lat="37.82762568" lon="-1.3555954">
<ele>952</ele>
<time>2014-03-08T12:38:11Z</time>
</trkpt>
<trkpt lat="37.82774471" lon="-1.35581235">
<ele>951</ele>
<time>2014-03-08T12:38:13Z</time>
</trkpt>
<trkpt lat="37.82784853" lon="-1.35599914">
<ele>950</ele>
<time>2014-03-08T12:38:15Z</time>
</trkpt>
<trkpt lat="37.82793124" lon="-1.35618539">
<ele>949</ele>
<time>2014-03-08T12:38:17Z</time>
</trkpt>
<trkpt lat="37.82800237" lon="-1.356382">
<ele>948</ele>
<time>2014-03-08T12:38:19Z</time>
</trkpt>
<trkpt lat="37.82806043" lon="-1.35654384">
<ele>947</ele>
<time>2014-03-08T12:38:21Z</time>
</trkpt>
<trkpt lat="37.82812403" lon="-1.35672815">
<ele>946</ele>
<time>2014-03-08T12:38:23Z</time>
</trkpt>
<trkpt lat="37.82820677" lon="-1.35697453">
<ele>943</ele>
<time>2014-03-08T12:38:25Z</time>
</trkpt>
<trkpt lat="37.82828087" lon="-1.35720959">
<ele>940</ele>
<time>2014-03-08T12:38:27Z</time>
</trkpt>
<trkpt lat="37.82835097" lon="-1.35740338">
<ele>940</ele>
<time>2014-03-08T12:38:29Z</time>
</trkpt>
<trkpt lat="37.82843943" lon="-1.3575954">
<ele>938</ele>
<time>2014-03-08T12:38:31Z</time>
</trkpt>
<trkpt lat="37.82853901" lon="-1.35783569">
<ele>935</ele>
<time>2014-03-08T12:38:33Z</time>
</trkpt>
<trkpt lat="37.82862085" lon="-1.35804635">
<ele>933</ele>
<time>2014-03-08T12:38:35Z</time>
</trkpt>
<trkpt lat="37.82873427" lon="-1.3582892">
<ele>933</ele>
<time>2014-03-08T12:38:37Z</time>
</trkpt>
<trkpt lat="37.82883914" lon="-1.35850642">
<ele>929</ele>
<time>2014-03-08T12:38:39Z</time>
</trkpt>
<trkpt lat="37.82894081" lon="-1.35874147">
<ele>929</ele>
<time>2014-03-08T12:38:41Z</time>
</trkpt>
<trkpt lat="37.82900833" lon="-1.35891951">
<ele>922</ele>
<time>2014-03-08T12:38:43Z</time>
</trkpt>
<trkpt lat="37.82905826" lon="-1.35914375">
<ele>922</ele>
<time>2014-03-08T12:38:45Z</time>
</trkpt>
<trkpt lat="37.8291059" lon="-1.35936613">
<ele>920</ele>
<time>2014-03-08T12:38:47Z</time>
</trkpt>
<trkpt lat="37.82915883" lon="-1.35957881">
<ele>918</ele>
<time>2014-03-08T12:38:49Z</time>
</trkpt>
<trkpt lat="37.82928206" lon="-1.35981703">
<ele>911</ele>
<time>2014-03-08T12:38:51Z</time>
</trkpt>
<trkpt lat="37.82943517" lon="-1.35990311">
<ele>906</ele>
<time>2014-03-08T12:38:53Z</time>
</trkpt>
<trkpt lat="37.82957188" lon="-1.3599207">
<ele>903</ele>
<time>2014-03-08T12:38:55Z</time>
</trkpt>
<trkpt lat="37.82973184" lon="-1.35995046">
<ele>899</ele>
<time>2014-03-08T12:38:57Z</time>
</trkpt>
<trkpt lat="37.82985285" lon="-1.35994055">
<ele>897</ele>
<time>2014-03-08T12:38:59Z</time>
</trkpt>
<trkpt lat="37.82998912" lon="-1.35995893">
<ele>898</ele>
<time>2014-03-08T12:39:01Z</time>
</trkpt>
<trkpt lat="37.83012149" lon="-1.3598901">
<ele>895</ele>
<time>2014-03-08T12:39:03Z</time>
</trkpt>
<trkpt lat="37.83021764" lon="-1.35977978">
<ele>895</ele>
<time>2014-03-08T12:39:05Z</time>
</trkpt>
<trkpt lat="37.83027056" lon="-1.3596616">
<ele>895</ele>
<time>2014-03-08T12:39:07Z</time>
</trkpt>
<trkpt lat="37.83025732" lon="-1.35951836">
<ele>894</ele>
<time>2014-03-08T12:39:09Z</time>
</trkpt>
<trkpt lat="37.83022449" lon="-1.359393">
<ele>894</ele>
<time>2014-03-08T12:39:11Z</time>
</trkpt>
<trkpt lat="37.8301958" lon="-1.35928601">
<ele>893</ele>
<time>2014-03-08T12:39:13Z</time>
</trkpt>
<trkpt lat="37.83011813" lon="-1.35921781">
<ele>892</ele>
<time>2014-03-08T12:39:15Z</time>
</trkpt>
<trkpt lat="37.83002885" lon="-1.35916836">
<ele>890</ele>
<time>2014-03-08T12:39:17Z</time>
</trkpt>
<trkpt lat="37.8299026" lon="-1.35912047">
<ele>891</ele>
<time>2014-03-08T12:39:19Z</time>
</trkpt>
<trkpt lat="37.82978416" lon="-1.35910594">
<ele>890</ele>
<time>2014-03-08T12:39:21Z</time>
</trkpt>
<trkpt lat="37.82965646" lon="-1.35910126">
<ele>890</ele>
<time>2014-03-08T12:39:23Z</time>
</trkpt>
<trkpt lat="37.82951268" lon="-1.35914509">
<ele>888</ele>
<time>2014-03-08T12:39:25Z</time>
</trkpt>
<trkpt lat="37.82940424" lon="-1.35923791">
<ele>888</ele>
<time>2014-03-08T12:39:27Z</time>
</trkpt>
<trkpt lat="37.82928818" lon="-1.35934071">
<ele>887</ele>
<time>2014-03-08T12:39:29Z</time>
</trkpt>
<trkpt lat="37.82920801" lon="-1.35946018">
<ele>881</ele>
<time>2014-03-08T12:39:31Z</time>
</trkpt>
<trkpt lat="37.82908117" lon="-1.35958013">
<ele>878</ele>
<time>2014-03-08T12:39:33Z</time>
</trkpt>
<trkpt lat="37.8290192" lon="-1.35976221">
<ele>877</ele>
<time>2014-03-08T12:39:35Z</time>
</trkpt>
<trkpt lat="37.82895197" lon="-1.35991738">
<ele>878</ele>
<time>2014-03-08T12:39:37Z</time>
</trkpt>
<trkpt lat="37.8288784" lon="-1.36012853">
<ele>874</ele>
<time>2014-03-08T12:39:39Z</time>
</trkpt>
<trkpt lat="37.82887765" lon="-1.36029164">
<ele>873</ele>
<time>2014-03-08T12:39:41Z</time>
</trkpt>
<trkpt lat="37.82892241" lon="-1.36047919">
<ele>872</ele>
<time>2014-03-08T12:39:43Z</time>
</trkpt>
<trkpt lat="37.82897587" lon="-1.36066245">
<ele>872</ele>
<time>2014-03-08T12:39:45Z</time>
</trkpt>
<trkpt lat="37.82905818" lon="-1.36084335">
<ele>869</ele>
<time>2014-03-08T12:39:47Z</time>
</trkpt>
<trkpt lat="37.82915101" lon="-1.3610247">
<ele>866</ele>
<time>2014-03-08T12:39:49Z</time>
</trkpt>
<trkpt lat="37.82930515" lon="-1.36115558">
<ele>865</ele>
<time>2014-03-08T12:39:51Z</time>
</trkpt>
<trkpt lat="37.82952542" lon="-1.36114161">
<ele>863</ele>
<time>2014-03-08T12:39:53Z</time>
</trkpt>
<trkpt lat="37.82968988" lon="-1.36114009">
<ele>859</ele>
<time>2014-03-08T12:39:55Z</time>
</trkpt>
<trkpt lat="37.82983433" lon="-1.361165">
<ele>854</ele>
<time>2014-03-08T12:39:57Z</time>
</trkpt>
<trkpt lat="37.83000565" lon="-1.3611573">
<ele>845</ele>
<time>2014-03-08T12:39:59Z</time>
</trkpt>
<trkpt lat="37.83016216" lon="-1.3611833">
<ele>841</ele>
<time>2014-03-08T12:40:01Z</time>
</trkpt>
<trkpt lat="37.83032627" lon="-1.36118849">
<ele>836</ele>
<time>2014-03-08T12:40:03Z</time>
</trkpt>
<trkpt lat="37.83050874" lon="-1.36120454">
<ele>833</ele>
<time>2014-03-08T12:40:05Z</time>
</trkpt>
<trkpt lat="37.83068021" lon="-1.36119638">
<ele>833</ele>
<time>2014-03-08T12:40:07Z</time>
</trkpt>
<trkpt lat="37.83085026" lon="-1.3612054">
<ele>836</ele>
<time>2014-03-08T12:40:09Z</time>
</trkpt>
<trkpt lat="37.83099476" lon="-1.36120603">
<ele>836</ele>
<time>2014-03-08T12:40:11Z</time>
</trkpt>
<trkpt lat="37.83112874" lon="-1.36119621">
<ele>837</ele>
<time>2014-03-08T12:40:13Z</time>
</trkpt>
<trkpt lat="37.83131405" lon="-1.36121363">
<ele>837</ele>
<time>2014-03-08T12:40:15Z</time>
</trkpt>
<trkpt lat="37.8314956" lon="-1.36122412">
<ele>838</ele>
<time>2014-03-08T12:40:17Z</time>
</trkpt>
<trkpt lat="37.8316422" lon="-1.36127319">
<ele>841</ele>
<time>2014-03-08T12:40:19Z</time>
</trkpt>
<trkpt lat="37.83180613" lon="-1.36130171">
<ele>838</ele>
<time>2014-03-08T12:40:21Z</time>
</trkpt>
<trkpt lat="37.83199679" lon="-1.36133354">
<ele>839</ele>
<time>2014-03-08T12:40:23Z</time>
</trkpt>
<trkpt lat="37.83215645" lon="-1.36136034">
<ele>840</ele>
<time>2014-03-08T12:40:25Z</time>
</trkpt>
<trkpt lat="37.83228683" lon="-1.36138774">
<ele>838</ele>
<time>2014-03-08T12:40:27Z</time>
</trkpt>
<trkpt lat="37.83245004" lon="-1.36143848">
<ele>838</ele>
<time>2014-03-08T12:40:29Z</time>
</trkpt>
<trkpt lat="37.83258587" lon="-1.36153681">
<ele>839</ele>
<time>2014-03-08T12:40:31Z</time>
</trkpt>
<trkpt lat="37.83268079" lon="-1.36167649">
<ele>840</ele>
<time>2014-03-08T12:40:33Z</time>
</trkpt>
<trkpt lat="37.83279626" lon="-1.36183786">
<ele>839</ele>
<time>2014-03-08T12:40:35Z</time>
</trkpt>
<trkpt lat="37.83291589" lon="-1.36199042">
<ele>838</ele>
<time>2014-03-08T12:40:37Z</time>
</trkpt>
<trkpt lat="37.83298797" lon="-1.36215118">
<ele>838</ele>
<time>2014-03-08T12:40:39Z</time>
</trkpt>
<trkpt lat="37.8329405" lon="-1.3624101">
<ele>837</ele>
<time>2014-03-08T12:40:41Z</time>
</trkpt>
<trkpt lat="37.83292277" lon="-1.3625796">
<ele>836</ele>
<time>2014-03-08T12:40:43Z</time>
</trkpt>
<trkpt lat="37.83289266" lon="-1.36270555">
<ele>836</ele>
<time>2014-03-08T12:40:45Z</time>
</trkpt>
<trkpt lat="37.83277336" lon="-1.36272843">
<ele>835</ele>
<time>2014-03-08T12:40:47Z</time>
</trkpt>
<trkpt lat="37.83270934" lon="-1.36272201">
<ele>835</ele>
<time>2014-03-08T12:40:49Z</time>
</trkpt>
<trkpt lat="37.83262523" lon="-1.36262631">
<ele>832</ele>
<time>2014-03-08T12:40:51Z</time>
</trkpt>
<trkpt lat="37.83255242" lon="-1.36253363">
<ele>835</ele>
<time>2014-03-08T12:40:53Z</time>
</trkpt>
<trkpt lat="37.83247839" lon="-1.36245653">
<ele>835</ele>
<time>2014-03-08T12:40:55Z</time>
</trkpt>
<trkpt lat="37.83239008" lon="-1.36235668">
<ele>832</ele>
<time>2014-03-08T12:40:57Z</time>
</trkpt>
<trkpt lat="37.83231787" lon="-1.36224587">
<ele>833</ele>
<time>2014-03-08T12:40:59Z</time>
</trkpt>
<trkpt lat="37.83224339" lon="-1.36214326">
<ele>833</ele>
<time>2014-03-08T12:41:01Z</time>
</trkpt>
<trkpt lat="37.83220187" lon="-1.36203335">
<ele>834</ele>
<time>2014-03-08T12:41:03Z</time>
</trkpt>
<trkpt lat="37.83217761" lon="-1.36189909">
<ele>833</ele>
<time>2014-03-08T12:41:05Z</time>
</trkpt>
<trkpt lat="37.83216039" lon="-1.36179629">
<ele>833</ele>
<time>2014-03-08T12:41:07Z</time>
</trkpt>
<trkpt lat="37.83214026" lon="-1.36161186">
<ele>834</ele>
<time>2014-03-08T12:41:09Z</time>
</trkpt>
<trkpt lat="37.83215012" lon="-1.36142381">
<ele>834</ele>
<time>2014-03-08T12:41:11Z</time>
</trkpt>
<trkpt lat="37.83216412" lon="-1.36128127">
<ele>833</ele>
<time>2014-03-08T12:41:13Z</time>
</trkpt>
<trkpt lat="37.83218267" lon="-1.36114577">
<ele>833</ele>
<time>2014-03-08T12:41:15Z</time>
</trkpt>
<trkpt lat="37.8322594" lon="-1.36097182">
<ele>832</ele>
<time>2014-03-08T12:41:17Z</time>
</trkpt>
<trkpt lat="37.83238776" lon="-1.36080126">
<ele>832</ele>
<time>2014-03-08T12:41:19Z</time>
</trkpt>
<trkpt lat="37.83247303" lon="-1.36066621">
<ele>832</ele>
<time>2014-03-08T12:41:21Z</time>
</trkpt>
<trkpt lat="37.83256494" lon="-1.36061342">
<ele>830</ele>
<time>2014-03-08T12:41:23Z</time>
</trkpt>
<trkpt lat="37.83265762" lon="-1.3604747">
<ele>830</ele>
<time>2014-03-08T12:41:25Z</time>
</trkpt>
<trkpt lat="37.83272118" lon="-1.36036657">
<ele>828</ele>
<time>2014-03-08T12:41:27Z</time>
</trkpt>
<trkpt lat="37.83280476" lon="-1.36024144">
<ele>820</ele>
<time>2014-03-08T12:41:29Z</time>
</trkpt>
<trkpt lat="37.83287166" lon="-1.3601035">
<ele>819</ele>
<time>2014-03-08T12:41:31Z</time>
</trkpt>
<trkpt lat="37.83295328" lon="-1.35998011">
<ele>818</ele>
<time>2014-03-08T12:41:33Z</time>
</trkpt>
<trkpt lat="37.83301326" lon="-1.35992256">
<ele>814</ele>
<time>2014-03-08T12:41:35Z</time>
</trkpt>
<trkpt lat="37.83311789" lon="-1.3597646">
<ele>805</ele>
<time>2014-03-08T12:41:37Z</time>
</trkpt>
<trkpt lat="37.83326985" lon="-1.35960715">
<ele>807</ele>
<time>2014-03-08T12:41:39Z</time>
</trkpt>
<trkpt lat="37.83339495" lon="-1.35956324">
<ele>802</ele>
<time>2014-03-08T12:41:41Z</time>
</trkpt>
<trkpt lat="37.83355908" lon="-1.35943415">
<ele>793</ele>
<time>2014-03-08T12:41:43Z</time>
</trkpt>
<trkpt lat="37.83368364" lon="-1.35924512">
<ele>792</ele>
<time>2014-03-08T12:41:45Z</time>
</trkpt>
<trkpt lat="37.83382659" lon="-1.35911371">
<ele>791</ele>
<time>2014-03-08T12:41:47Z</time>
</trkpt>
<trkpt lat="37.83399864" lon="-1.35898866">
<ele>789</ele>
<time>2014-03-08T12:41:49Z</time>
</trkpt>
<trkpt lat="37.83415621" lon="-1.35888375">
<ele>791</ele>
<time>2014-03-08T12:41:51Z</time>
</trkpt>
<trkpt lat="37.83430627" lon="-1.35882575">
<ele>790</ele>
<time>2014-03-08T12:41:53Z</time>
</trkpt>
<trkpt lat="37.83445673" lon="-1.35877016">
<ele>788</ele>
<time>2014-03-08T12:41:55Z</time>
</trkpt>
<trkpt lat="37.83463004" lon="-1.35872687">
<ele>789</ele>
<time>2014-03-08T12:41:57Z</time>
</trkpt>
<trkpt lat="37.83478069" lon="-1.35870211">
<ele>788</ele>
<time>2014-03-08T12:41:59Z</time>
</trkpt>
<trkpt lat="37.83495213" lon="-1.35867664">
<ele>784</ele>
<time>2014-03-08T12:42:01Z</time>
</trkpt>
<trkpt lat="37.83513842" lon="-1.35869151">
<ele>784</ele>
<time>2014-03-08T12:42:03Z</time>
</trkpt>
<trkpt lat="37.83529844" lon="-1.35871082">
<ele>788</ele>
<time>2014-03-08T12:42:05Z</time>
</trkpt>
<trkpt lat="37.83536629" lon="-1.35868808">
<ele>785</ele>
<time>2014-03-08T12:42:07Z</time>
</trkpt>
<trkpt lat="37.83556375" lon="-1.35865697">
<ele>780</ele>
<time>2014-03-08T12:42:09Z</time>
</trkpt>
<trkpt lat="37.83573224" lon="-1.35858026">
<ele>788</ele>
<time>2014-03-08T12:42:11Z</time>
</trkpt>
<trkpt lat="37.83583384" lon="-1.35854276">
<ele>789</ele>
<time>2014-03-08T12:42:13Z</time>
</trkpt>
<trkpt lat="37.83597058" lon="-1.35852916">
<ele>788</ele>
<time>2014-03-08T12:42:15Z</time>
</trkpt>
<trkpt lat="37.83612197" lon="-1.3584959">
<ele>791</ele>
<time>2014-03-08T12:42:17Z</time>
</trkpt>
<trkpt lat="37.83622747" lon="-1.35850323">
<ele>790</ele>
<time>2014-03-08T12:42:19Z</time>
</trkpt>
<trkpt lat="37.83638043" lon="-1.35848747">
<ele>789</ele>
<time>2014-03-08T12:42:21Z</time>
</trkpt>
<trkpt lat="37.83653246" lon="-1.35851468">
<ele>789</ele>
<time>2014-03-08T12:42:23Z</time>
</trkpt>
<trkpt lat="37.83668244" lon="-1.35857633">
<ele>789</ele>
<time>2014-03-08T12:42:25Z</time>
</trkpt>
<trkpt lat="37.83682185" lon="-1.35872914">
<ele>788</ele>
<time>2014-03-08T12:42:27Z</time>
</trkpt>
<trkpt lat="37.83690233" lon="-1.35884652">
<ele>790</ele>
<time>2014-03-08T12:42:29Z</time>
</trkpt>
<trkpt lat="37.83700057" lon="-1.35896617">
<ele>789</ele>
<time>2014-03-08T12:42:31Z</time>
</trkpt>
<trkpt lat="37.83709473" lon="-1.35912924">
<ele>786</ele>
<time>2014-03-08T12:42:33Z</time>
</trkpt>
<trkpt lat="37.83716086" lon="-1.3592895">
<ele>785</ele>
<time>2014-03-08T12:42:35Z</time>
</trkpt>
<trkpt lat="37.83717778" lon="-1.35942328">
<ele>785</ele>
<time>2014-03-08T12:42:37Z</time>
</trkpt>
<trkpt lat="37.8372238" lon="-1.35962582">
<ele>790</ele>
<time>2014-03-08T12:42:39Z</time>
</trkpt>
<trkpt lat="37.83726517" lon="-1.35976628">
<ele>791</ele>
<time>2014-03-08T12:42:41Z</time>
</trkpt>
<trkpt lat="37.83726496" lon="-1.35991548">
<ele>791</ele>
<time>2014-03-08T12:42:43Z</time>
</trkpt>
<trkpt lat="37.83729631" lon="-1.36014632">
<ele>787</ele>
<time>2014-03-08T12:42:45Z</time>
</trkpt>
<trkpt lat="37.83735032" lon="-1.36030814">
<ele>788</ele>
<time>2014-03-08T12:42:47Z</time>
</trkpt>
<trkpt lat="37.83744211" lon="-1.36046876">
<ele>788</ele>
<time>2014-03-08T12:42:49Z</time>
</trkpt>
<trkpt lat="37.83763649" lon="-1.36056612">
<ele>780</ele>
<time>2014-03-08T12:42:51Z</time>
</trkpt>
<trkpt lat="37.83780522" lon="-1.36063236">
<ele>775</ele>
<time>2014-03-08T12:42:53Z</time>
</trkpt>
<trkpt lat="37.83799174" lon="-1.36059356">
<ele>771</ele>
<time>2014-03-08T12:42:55Z</time>
</trkpt>
<trkpt lat="37.83820554" lon="-1.36056667">
<ele>766</ele>
<time>2014-03-08T12:42:57Z</time>
</trkpt>
<trkpt lat="37.83836592" lon="-1.36056723">
<ele>763</ele>
<time>2014-03-08T12:42:59Z</time>
</trkpt>
<trkpt lat="37.83853242" lon="-1.3605001">
<ele>759</ele>
<time>2014-03-08T12:43:01Z</time>
</trkpt>
<trkpt lat="37.8387096" lon="-1.36046095">
<ele>757</ele>
<time>2014-03-08T12:43:03Z</time>
</trkpt>
<trkpt lat="37.83889721" lon="-1.36039545">
<ele>753</ele>
<time>2014-03-08T12:43:05Z</time>
</trkpt>
<trkpt lat="37.83911049" lon="-1.36033423">
<ele>751</ele>
<time>2014-03-08T12:43:07Z</time>
</trkpt>
<trkpt lat="37.8392843" lon="-1.36020957">
<ele>749</ele>
<time>2014-03-08T12:43:09Z</time>
</trkpt>
<trkpt lat="37.83941272" lon="-1.36004946">
<ele>746</ele>
<time>2014-03-08T12:43:11Z</time>
</trkpt>
<trkpt lat="37.83957797" lon="-1.3598885">
<ele>745</ele>
<time>2014-03-08T12:43:13Z</time>
</trkpt>
<trkpt lat="37.83977414" lon="-1.35993606">
<ele>740</ele>
<time>2014-03-08T12:43:15Z</time>
</trkpt>
<trkpt lat="37.83994072" lon="-1.35993877">
<ele>740</ele>
<time>2014-03-08T12:43:17Z</time>
</trkpt>
<trkpt lat="37.84007686" lon="-1.36000132">
<ele>740</ele>
<time>2014-03-08T12:43:19Z</time>
</trkpt>
<trkpt lat="37.84017913" lon="-1.36018197">
<ele>736</ele>
<time>2014-03-08T12:43:21Z</time>
</trkpt>
<trkpt lat="37.84031885" lon="-1.36035606">
<ele>735</ele>
<time>2014-03-08T12:43:23Z</time>
</trkpt>
<trkpt lat="37.84039177" lon="-1.36049173">
<ele>736</ele>
<time>2014-03-08T12:43:25Z</time>
</trkpt>
<trkpt lat="37.84028922" lon="-1.36059451">
<ele>734</ele>
<time>2014-03-08T12:43:27Z</time>
</trkpt>
<trkpt lat="37.84025485" lon="-1.36072243">
<ele>732</ele>
<time>2014-03-08T12:43:29Z</time>
</trkpt>
<trkpt lat="37.84016269" lon="-1.36079097">
<ele>730</ele>
<time>2014-03-08T12:43:31Z</time>
</trkpt>
<trkpt lat="37.84009415" lon="-1.36080116">
<ele>729</ele>
<time>2014-03-08T12:43:33Z</time>
</trkpt>
<trkpt lat="37.83998346" lon="-1.36078848">
<ele>728</ele>
<time>2014-03-08T12:43:35Z</time>
</trkpt>
<trkpt lat="37.83990301" lon="-1.36079637">
<ele>729</ele>
<time>2014-03-08T12:43:37Z</time>
</trkpt>
<trkpt lat="37.83981772" lon="-1.3608414">
<ele>728</ele>
<time>2014-03-08T12:43:39Z</time>
</trkpt>
<trkpt lat="37.83969468" lon="-1.36091562">
<ele>727</ele>
<time>2014-03-08T12:43:41Z</time>
</trkpt>
<trkpt lat="37.83955512" lon="-1.36097039">
<ele>726</ele>
<time>2014-03-08T12:43:43Z</time>
</trkpt>
<trkpt lat="37.83943464" lon="-1.36101686">
<ele>726</ele>
<time>2014-03-08T12:43:45Z</time>
</trkpt>
<trkpt lat="37.83924204" lon="-1.3609982">
<ele>724</ele>
<time>2014-03-08T12:43:47Z</time>
</trkpt>
<trkpt lat="37.83914223" lon="-1.36098348">
<ele>724</ele>
<time>2014-03-08T12:43:49Z</time>
</trkpt>
<trkpt lat="37.83903591" lon="-1.36096214">
<ele>722</ele>
<time>2014-03-08T12:43:51Z</time>
</trkpt>
<trkpt lat="37.83890027" lon="-1.3609701">
<ele>722</ele>
<time>2014-03-08T12:43:53Z</time>
</trkpt>
<trkpt lat="37.83876638" lon="-1.36093931">
<ele>721</ele>
<time>2014-03-08T12:43:55Z</time>
</trkpt>
<trkpt lat="37.83869773" lon="-1.36090617">
<ele>721</ele>
<time>2014-03-08T12:43:57Z</time>
</trkpt>
<trkpt lat="37.8385728" lon="-1.36090689">
<ele>718</ele>
<time>2014-03-08T12:43:59Z</time>
</trkpt>
<trkpt lat="37.8383782" lon="-1.36088987">
<ele>717</ele>
<time>2014-03-08T12:44:01Z</time>
</trkpt>
<trkpt lat="37.83820276" lon="-1.36087106">
<ele>717</ele>
<time>2014-03-08T12:44:03Z</time>
</trkpt>
<trkpt lat="37.83808649" lon="-1.3608273">
<ele>709</ele>
<time>2014-03-08T12:44:05Z</time>
</trkpt>
<trkpt lat="37.83793223" lon="-1.36074708">
<ele>705</ele>
<time>2014-03-08T12:44:07Z</time>
</trkpt>
<trkpt lat="37.83778536" lon="-1.36067239">
<ele>703</ele>
<time>2014-03-08T12:44:09Z</time>
</trkpt>
<trkpt lat="37.83764783" lon="-1.36054758">
<ele>701</ele>
<time>2014-03-08T12:44:11Z</time>
</trkpt>
<trkpt lat="37.83754569" lon="-1.36036709">
<ele>698</ele>
<time>2014-03-08T12:44:13Z</time>
</trkpt>
<trkpt lat="37.83745614" lon="-1.36022331">
<ele>696</ele>
<time>2014-03-08T12:44:15Z</time>
</trkpt>
<trkpt lat="37.83737991" lon="-1.36005095">
<ele>696</ele>
<time>2014-03-08T12:44:17Z</time>
</trkpt>
<trkpt lat="37.8372912" lon="-1.35993622">
<ele>697</ele>
<time>2014-03-08T12:44:19Z</time>
</trkpt>
<trkpt lat="37.8371992" lon="-1.35978039">
<ele>696</ele>
<time>2014-03-08T12:44:21Z</time>
</trkpt>
<trkpt lat="37.83714598" lon="-1.35961088">
<ele>695</ele>
<time>2014-03-08T12:44:23Z</time>
</trkpt>
<trkpt lat="37.83709121" lon="-1.35940582">
<ele>693</ele>
<time>2014-03-08T12:44:25Z</time>
</trkpt>
<trkpt lat="37.83708302" lon="-1.35915863">
<ele>687</ele>
<time>2014-03-08T12:44:27Z</time>
</trkpt>
<trkpt lat="37.83706509" lon="-1.3589394">
<ele>686</ele>
<time>2014-03-08T12:44:29Z</time>
</trkpt>
<trkpt lat="37.83706773" lon="-1.35864527">
<ele>686</ele>
<time>2014-03-08T12:44:31Z</time>
</trkpt>
<trkpt lat="37.83708024" lon="-1.35840141">
<ele>685</ele>
<time>2014-03-08T12:44:33Z</time>
</trkpt>
<trkpt lat="37.8371082" lon="-1.35824067">
<ele>686</ele>
<time>2014-03-08T12:44:35Z</time>
</trkpt>
<trkpt lat="37.83715452" lon="-1.35808301">
<ele>687</ele>
<time>2014-03-08T12:44:37Z</time>
</trkpt>
<trkpt lat="37.83726817" lon="-1.35789005">
<ele>688</ele>
<time>2014-03-08T12:44:39Z</time>
</trkpt>
<trkpt lat="37.83732172" lon="-1.35771486">
<ele>689</ele>
<time>2014-03-08T12:44:41Z</time>
</trkpt>
<trkpt lat="37.83741241" lon="-1.35748133">
<ele>685</ele>
<time>2014-03-08T12:44:43Z</time>
</trkpt>
<trkpt lat="37.83752608" lon="-1.35728719">
<ele>685</ele>
<time>2014-03-08T12:44:45Z</time>
</trkpt>
<trkpt lat="37.83763473" lon="-1.35717515">
<ele>688</ele>
<time>2014-03-08T12:44:47Z</time>
</trkpt>
<trkpt lat="37.83776998" lon="-1.35702376">
<ele>687</ele>
<time>2014-03-08T12:44:49Z</time>
</trkpt>
<trkpt lat="37.83787794" lon="-1.3569446">
<ele>685</ele>
<time>2014-03-08T12:44:51Z</time>
</trkpt>
<trkpt lat="37.83804608" lon="-1.35683922">
<ele>682</ele>
<time>2014-03-08T12:44:53Z</time>
</trkpt>
<trkpt lat="37.83817677" lon="-1.35672088">
<ele>680</ele>
<time>2014-03-08T12:44:55Z</time>
</trkpt>
<trkpt lat="37.8383028" lon="-1.35659743">
<ele>681</ele>
<time>2014-03-08T12:44:57Z</time>
</trkpt>
<trkpt lat="37.83840843" lon="-1.35653133">
<ele>678</ele>
<time>2014-03-08T12:44:59Z</time>
</trkpt>
<trkpt lat="37.83854302" lon="-1.35648526">
<ele>676</ele>
<time>2014-03-08T12:45:01Z</time>
</trkpt>
<trkpt lat="37.83869973" lon="-1.35641317">
<ele>676</ele>
<time>2014-03-08T12:45:03Z</time>
</trkpt>
<trkpt lat="37.83886705" lon="-1.35633829">
<ele>673</ele>
<time>2014-03-08T12:45:05Z</time>
</trkpt>
<trkpt lat="37.83901155" lon="-1.35625408">
<ele>670</ele>
<time>2014-03-08T12:45:07Z</time>
</trkpt>
<trkpt lat="37.8391539" lon="-1.35616648">
<ele>667</ele>
<time>2014-03-08T12:45:09Z</time>
</trkpt>
<trkpt lat="37.83925338" lon="-1.35612409">
<ele>662</ele>
<time>2014-03-08T12:45:11Z</time>
</trkpt>
<trkpt lat="37.83939763" lon="-1.35608319">
<ele>662</ele>
<time>2014-03-08T12:45:13Z</time>
</trkpt>
<trkpt lat="37.8395182" lon="-1.35610881">
<ele>661</ele>
<time>2014-03-08T12:45:15Z</time>
</trkpt>
<trkpt lat="37.83961089" lon="-1.35630427">
<ele>664</ele>
<time>2014-03-08T12:45:17Z</time>
</trkpt>
<trkpt lat="37.83961584" lon="-1.35647292">
<ele>664</ele>
<time>2014-03-08T12:45:19Z</time>
</trkpt>
<trkpt lat="37.83963155" lon="-1.35663195">
<ele>661</ele>
<time>2014-03-08T12:45:21Z</time>
</trkpt>
<trkpt lat="37.83959745" lon="-1.35675135">
<ele>661</ele>
<time>2014-03-08T12:45:23Z</time>
</trkpt>
<trkpt lat="37.83957166" lon="-1.35687304">
<ele>659</ele>
<time>2014-03-08T12:45:25Z</time>
</trkpt>
<trkpt lat="37.83951194" lon="-1.3569959">
<ele>661</ele>
<time>2014-03-08T12:45:27Z</time>
</trkpt>
<trkpt lat="37.83942849" lon="-1.35707276">
<ele>658</ele>
<time>2014-03-08T12:45:29Z</time>
</trkpt>
<trkpt lat="37.83935362" lon="-1.35717131">
<ele>654</ele>
<time>2014-03-08T12:45:31Z</time>
</trkpt>
<trkpt lat="37.83926844" lon="-1.35728099">
<ele>653</ele>
<time>2014-03-08T12:45:33Z</time>
</trkpt>
<trkpt lat="37.83917322" lon="-1.35734795">
<ele>648</ele>
<time>2014-03-08T12:45:35Z</time>
</trkpt>
<trkpt lat="37.83907787" lon="-1.35740032">
<ele>646</ele>
<time>2014-03-08T12:45:37Z</time>
</trkpt>
<trkpt lat="37.83897954" lon="-1.3574661">
<ele>641</ele>
<time>2014-03-08T12:45:39Z</time>
</trkpt>
<trkpt lat="37.83893855" lon="-1.35760229">
<ele>640</ele>
<time>2014-03-08T12:45:41Z</time>
</trkpt>
<trkpt lat="37.8389045" lon="-1.35771449">
<ele>640</ele>
<time>2014-03-08T12:45:43Z</time>
</trkpt>
<trkpt lat="37.83885673" lon="-1.35781861">
<ele>639</ele>
<time>2014-03-08T12:45:45Z</time>
</trkpt>
<trkpt lat="37.83882551" lon="-1.35796446">
<ele>639</ele>
<time>2014-03-08T12:45:47Z</time>
</trkpt>
<trkpt lat="37.83881764" lon="-1.35806351">
<ele>635</ele>
<time>2014-03-08T12:45:49Z</time>
</trkpt>
<trkpt lat="37.83879132" lon="-1.35819074">
<ele>633</ele>
<time>2014-03-08T12:45:51Z</time>
</trkpt>
<trkpt lat="37.83875045" lon="-1.35836156">
<ele>629</ele>
<time>2014-03-08T12:45:53Z</time>
</trkpt>
<trkpt lat="37.83872891" lon="-1.35847753">
<ele>629</ele>
<time>2014-03-08T12:45:55Z</time>
</trkpt>
<trkpt lat="37.83867867" lon="-1.35856795">
<ele>627</ele>
<time>2014-03-08T12:45:57Z</time>
</trkpt>
<trkpt lat="37.83858097" lon="-1.35865915">
<ele>627</ele>
<time>2014-03-08T12:45:59Z</time>
</trkpt>
<trkpt lat="37.83849429" lon="-1.35872783">
<ele>626</ele>
<time>2014-03-08T12:46:01Z</time>
</trkpt>
<trkpt lat="37.83841581" lon="-1.35873863">
<ele>624</ele>
<time>2014-03-08T12:46:03Z</time>
</trkpt>
<trkpt lat="37.838326" lon="-1.35879424">
<ele>625</ele>
<time>2014-03-08T12:46:05Z</time>
</trkpt>
<trkpt lat="37.83824917" lon="-1.35886029">
<ele>628</ele>
<time>2014-03-08T12:46:07Z</time>
</trkpt>
<trkpt lat="37.83818023" lon="-1.35892719">
<ele>631</ele>
<time>2014-03-08T12:46:09Z</time>
</trkpt>
<trkpt lat="37.8381322" lon="-1.35899809">
<ele>635</ele>
<time>2014-03-08T12:46:11Z</time>
</trkpt>
<trkpt lat="37.8380608" lon="-1.3590662">
<ele>636</ele>
<time>2014-03-08T12:46:13Z</time>
</trkpt>
<trkpt lat="37.83791168" lon="-1.35911546">
<ele>641</ele>
<time>2014-03-08T12:46:15Z</time>
</trkpt>
<trkpt lat="37.83778314" lon="-1.35916232">
<ele>645</ele>
<time>2014-03-08T12:46:17Z</time>
</trkpt>
<trkpt lat="37.83764985" lon="-1.35916289">
<ele>643</ele>
<time>2014-03-08T12:46:19Z</time>
</trkpt>
<trkpt lat="37.83753778" lon="-1.35913493">
<ele>645</ele>
<time>2014-03-08T12:46:21Z</time>
</trkpt>
<trkpt lat="37.83743812" lon="-1.35909563">
<ele>648</ele>
<time>2014-03-08T12:46:23Z</time>
</trkpt>
<trkpt lat="37.83733995" lon="-1.35903888">
<ele>645</ele>
<time>2014-03-08T12:46:25Z</time>
</trkpt>
<trkpt lat="37.83723733" lon="-1.35900298">
<ele>642</ele>
<time>2014-03-08T12:46:27Z</time>
</trkpt>
<trkpt lat="37.8371229" lon="-1.35894433">
<ele>640</ele>
<time>2014-03-08T12:46:29Z</time>
</trkpt>
<trkpt lat="37.83701387" lon="-1.35887804">
<ele>639</ele>
<time>2014-03-08T12:46:31Z</time>
</trkpt>
<trkpt lat="37.83689652" lon="-1.35882642">
<ele>639</ele>
<time>2014-03-08T12:46:33Z</time>
</trkpt>
<trkpt lat="37.83675358" lon="-1.35891804">
<ele>639</ele>
<time>2014-03-08T12:46:35Z</time>
</trkpt>
<trkpt lat="37.83664155" lon="-1.35899517">
<ele>640</ele>
<time>2014-03-08T12:46:37Z</time>
</trkpt>
<trkpt lat="37.836541" lon="-1.35903857">
<ele>640</ele>
<time>2014-03-08T12:46:39Z</time>
</trkpt>
<trkpt lat="37.83639004" lon="-1.35914077">
<ele>642</ele>
<time>2014-03-08T12:46:41Z</time>
</trkpt>
<trkpt lat="37.83630762" lon="-1.35923162">
<ele>644</ele>
<time>2014-03-08T12:46:43Z</time>
</trkpt>
<trkpt lat="37.83621039" lon="-1.35928924">
<ele>644</ele>
<time>2014-03-08T12:46:45Z</time>
</trkpt>
<trkpt lat="37.83609791" lon="-1.35938915">
<ele>643</ele>
<time>2014-03-08T12:46:47Z</time>
</trkpt>
<trkpt lat="37.83600238" lon="-1.35945652">
<ele>644</ele>
<time>2014-03-08T12:46:49Z</time>
</trkpt>
<trkpt lat="37.83589411" lon="-1.35952287">
<ele>644</ele>
<time>2014-03-08T12:46:51Z</time>
</trkpt>
<trkpt lat="37.83582491" lon="-1.35964609">
<ele>642</ele>
<time>2014-03-08T12:46:53Z</time>
</trkpt>
<trkpt lat="37.83579221" lon="-1.35979525">
<ele>641</ele>
<time>2014-03-08T12:46:55Z</time>
</trkpt>
<trkpt lat="37.83582763" lon="-1.35995917">
<ele>641</ele>
<time>2014-03-08T12:46:57Z</time>
</trkpt>
<trkpt lat="37.83587533" lon="-1.36011674">
<ele>642</ele>
<time>2014-03-08T12:46:59Z</time>
</trkpt>
<trkpt lat="37.83600305" lon="-1.36024744">
<ele>644</ele>
<time>2014-03-08T12:47:01Z</time>
</trkpt>
<trkpt lat="37.83611001" lon="-1.3603798">
<ele>644</ele>
<time>2014-03-08T12:47:03Z</time>
</trkpt>
<trkpt lat="37.83624338" lon="-1.3603687">
<ele>640</ele>
<time>2014-03-08T12:47:05Z</time>
</trkpt>
<trkpt lat="37.83637453" lon="-1.36038827">
<ele>636</ele>
<time>2014-03-08T12:47:07Z</time>
</trkpt>
<trkpt lat="37.83657296" lon="-1.36035681">
<ele>631</ele>
<time>2014-03-08T12:47:09Z</time>
</trkpt>
<trkpt lat="37.83672018" lon="-1.36033149">
<ele>628</ele>
<time>2014-03-08T12:47:11Z</time>
</trkpt>
<trkpt lat="37.83687394" lon="-1.36034776">
<ele>622</ele>
<time>2014-03-08T12:47:13Z</time>
</trkpt>
<trkpt lat="37.8370428" lon="-1.36037137">
<ele>621</ele>
<time>2014-03-08T12:47:15Z</time>
</trkpt>
<trkpt lat="37.83719678" lon="-1.36034384">
<ele>620</ele>
<time>2014-03-08T12:47:17Z</time>
</trkpt>
<trkpt lat="37.83735287" lon="-1.3603341">
<ele>620</ele>
<time>2014-03-08T12:47:19Z</time>
</trkpt>
<trkpt lat="37.83748499" lon="-1.36035141">
<ele>619</ele>
<time>2014-03-08T12:47:21Z</time>
</trkpt>
<trkpt lat="37.83761901" lon="-1.36032686">
<ele>617</ele>
<time>2014-03-08T12:47:23Z</time>
</trkpt>
<trkpt lat="37.83778867" lon="-1.36031418">
<ele>615</ele>
<time>2014-03-08T12:47:25Z</time>
</trkpt>
<trkpt lat="37.83794874" lon="-1.36029062">
<ele>615</ele>
<time>2014-03-08T12:47:27Z</time>
</trkpt>
<trkpt lat="37.83811605" lon="-1.36027617">
<ele>615</ele>
<time>2014-03-08T12:47:29Z</time>
</trkpt>
<trkpt lat="37.83827066" lon="-1.36026678">
<ele>615</ele>
<time>2014-03-08T12:47:31Z</time>
</trkpt>
<trkpt lat="37.83843685" lon="-1.36022528">
<ele>615</ele>
<time>2014-03-08T12:47:33Z</time>
</trkpt>
<trkpt lat="37.83855339" lon="-1.36012177">
<ele>620</ele>
<time>2014-03-08T12:47:35Z</time>
</trkpt>
<trkpt lat="37.83868071" lon="-1.36002274">
<ele>620</ele>
<time>2014-03-08T12:47:37Z</time>
</trkpt>
<trkpt lat="37.83877699" lon="-1.35991064">
<ele>623</ele>
<time>2014-03-08T12:47:39Z</time>
</trkpt>
<trkpt lat="37.83885754" lon="-1.35979014">
<ele>627</ele>
<time>2014-03-08T12:47:41Z</time>
</trkpt>
<trkpt lat="37.83897232" lon="-1.35964961">
<ele>626</ele>
<time>2014-03-08T12:47:43Z</time>
</trkpt>
<trkpt lat="37.83903557" lon="-1.35947327">
<ele>626</ele>
<time>2014-03-08T12:47:45Z</time>
</trkpt>
<trkpt lat="37.83902827" lon="-1.35926925">
<ele>629</ele>
<time>2014-03-08T12:47:47Z</time>
</trkpt>
<trkpt lat="37.83896954" lon="-1.35905985">
<ele>630</ele>
<time>2014-03-08T12:47:49Z</time>
</trkpt>
<trkpt lat="37.83889382" lon="-1.35885342">
<ele>632</ele>
<time>2014-03-08T12:47:51Z</time>
</trkpt>
<trkpt lat="37.83871523" lon="-1.35873969">
<ele>636</ele>
<time>2014-03-08T12:47:53Z</time>
</trkpt>
<trkpt lat="37.8385927" lon="-1.35868704">
<ele>638</ele>
<time>2014-03-08T12:47:55Z</time>
</trkpt>
<trkpt lat="37.83845506" lon="-1.35867951">
<ele>639</ele>
<time>2014-03-08T12:47:57Z</time>
</trkpt>
<trkpt lat="37.83831364" lon="-1.35875345">
<ele>642</ele>
<time>2014-03-08T12:47:59Z</time>
</trkpt>
<trkpt lat="37.83817176" lon="-1.35878252">
<ele>645</ele>
<time>2014-03-08T12:48:01Z</time>
</trkpt>
<trkpt lat="37.83805741" lon="-1.35881979">
<ele>648</ele>
<time>2014-03-08T12:48:03Z</time>
</trkpt>
<trkpt lat="37.83793606" lon="-1.35885107">
<ele>650</ele>
<time>2014-03-08T12:48:05Z</time>
</trkpt>
<trkpt lat="37.83781625" lon="-1.3588806">
<ele>653</ele>
<time>2014-03-08T12:48:07Z</time>
</trkpt>
<trkpt lat="37.83770949" lon="-1.35893788">
<ele>654</ele>
<time>2014-03-08T12:48:09Z</time>
</trkpt>
<trkpt lat="37.83761407" lon="-1.35898322">
<ele>655</ele>
<time>2014-03-08T12:48:11Z</time>
</trkpt>
<trkpt lat="37.83750898" lon="-1.35908518">
<ele>655</ele>
<time>2014-03-08T12:48:13Z</time>
</trkpt>
<trkpt lat="37.83742101" lon="-1.35918631">
<ele>655</ele>
<time>2014-03-08T12:48:15Z</time>
</trkpt>
<trkpt lat="37.83737408" lon="-1.35932386">
<ele>651</ele>
<time>2014-03-08T12:48:17Z</time>
</trkpt>
<trkpt lat="37.83730008" lon="-1.35945698">
<ele>649</ele>
<time>2014-03-08T12:48:19Z</time>
</trkpt>
<trkpt lat="37.83721541" lon="-1.35957498">
<ele>646</ele>
<time>2014-03-08T12:48:21Z</time>
</trkpt>
<trkpt lat="37.837144" lon="-1.35974813">
<ele>645</ele>
<time>2014-03-08T12:48:23Z</time>
</trkpt>
<trkpt lat="37.83706309" lon="-1.35990138">
<ele>642</ele>
<time>2014-03-08T12:48:25Z</time>
</trkpt>
<trkpt lat="37.83697923" lon="-1.3600437">
<ele>637</ele>
<time>2014-03-08T12:48:27Z</time>
</trkpt>
<trkpt lat="37.8369284" lon="-1.36019359">
<ele>635</ele>
<time>2014-03-08T12:48:29Z</time>
</trkpt>
<trkpt lat="37.83687249" lon="-1.36037446">
<ele>632</ele>
<time>2014-03-08T12:48:31Z</time>
</trkpt>
<trkpt lat="37.8368061" lon="-1.36053685">
<ele>629</ele>
<time>2014-03-08T12:48:33Z</time>
</trkpt>
<trkpt lat="37.8367652" lon="-1.36070412">
<ele>627</ele>
<time>2014-03-08T12:48:35Z</time>
</trkpt>
<trkpt lat="37.83671403" lon="-1.36085529">
<ele>626</ele>
<time>2014-03-08T12:48:37Z</time>
</trkpt>
<trkpt lat="37.836647" lon="-1.36098513">
<ele>620</ele>
<time>2014-03-08T12:48:39Z</time>
</trkpt>
<trkpt lat="37.83655554" lon="-1.36115691">
<ele>623</ele>
<time>2014-03-08T12:48:41Z</time>
</trkpt>
<trkpt lat="37.83649777" lon="-1.36120813">
<ele>624</ele>
<time>2014-03-08T12:48:43Z</time>
</trkpt>
<trkpt lat="37.83642711" lon="-1.36131268">
<ele>618</ele>
<time>2014-03-08T12:48:45Z</time>
</trkpt>
<trkpt lat="37.83638514" lon="-1.3614461">
<ele>617</ele>
<time>2014-03-08T12:48:47Z</time>
</trkpt>
<trkpt lat="37.83636522" lon="-1.36153926">
<ele>617</ele>
<time>2014-03-08T12:48:49Z</time>
</trkpt>
<trkpt lat="37.83631513" lon="-1.36164946">
<ele>614</ele>
<time>2014-03-08T12:48:51Z</time>
</trkpt>
<trkpt lat="37.8362517" lon="-1.36172697">
<ele>617</ele>
<time>2014-03-08T12:48:53Z</time>
</trkpt>
<trkpt lat="37.83613713" lon="-1.36179191">
<ele>616</ele>
<time>2014-03-08T12:48:55Z</time>
</trkpt>
<trkpt lat="37.83602359" lon="-1.36180899">
<ele>611</ele>
<time>2014-03-08T12:48:57Z</time>
</trkpt>
<trkpt lat="37.83594278" lon="-1.36182207">
<ele>611</ele>
<time>2014-03-08T12:48:59Z</time>
</trkpt>
<trkpt lat="37.83583434" lon="-1.36181994">
<ele>605</ele>
<time>2014-03-08T12:49:01Z</time>
</trkpt>
<trkpt lat="37.83576277" lon="-1.36185775">
<ele>604</ele>
<time>2014-03-08T12:49:03Z</time>
</trkpt>
<trkpt lat="37.83567819" lon="-1.36186693">
<ele>599</ele>
<time>2014-03-08T12:49:05Z</time>
</trkpt>
<trkpt lat="37.83555954" lon="-1.36183511">
<ele>598</ele>
<time>2014-03-08T12:49:07Z</time>
</trkpt>
<trkpt lat="37.83545601" lon="-1.36180731">
<ele>598</ele>
<time>2014-03-08T12:49:09Z</time>
</trkpt>
<trkpt lat="37.83540125" lon="-1.36174619">
<ele>590</ele>
<time>2014-03-08T12:49:11Z</time>
</trkpt>
<trkpt lat="37.83529575" lon="-1.36164736">
<ele>589</ele>
<time>2014-03-08T12:49:13Z</time>
</trkpt>
<trkpt lat="37.8352426" lon="-1.36153723">
<ele>589</ele>
<time>2014-03-08T12:49:15Z</time>
</trkpt>
<trkpt lat="37.83519601" lon="-1.36143733">
<ele>585</ele>
<time>2014-03-08T12:49:17Z</time>
</trkpt>
<trkpt lat="37.83513446" lon="-1.36127629">
<ele>585</ele>
<time>2014-03-08T12:49:19Z</time>
</trkpt>
<trkpt lat="37.83509364" lon="-1.36111733">
<ele>584</ele>
<time>2014-03-08T12:49:21Z</time>
</trkpt>
<trkpt lat="37.83505584" lon="-1.36096997">
<ele>582</ele>
<time>2014-03-08T12:49:23Z</time>
</trkpt>
<trkpt lat="37.83501629" lon="-1.36075215">
<ele>581</ele>
<time>2014-03-08T12:49:25Z</time>
</trkpt>
<trkpt lat="37.83494379" lon="-1.36057076">
<ele>581</ele>
<time>2014-03-08T12:49:27Z</time>
</trkpt>
<trkpt lat="37.83493156" lon="-1.36041582">
<ele>582</ele>
<time>2014-03-08T12:49:29Z</time>
</trkpt>
<trkpt lat="37.83494362" lon="-1.36027347">
<ele>583</ele>
<time>2014-03-08T12:49:31Z</time>
</trkpt>
<trkpt lat="37.83497002" lon="-1.3601569">
<ele>580</ele>
<time>2014-03-08T12:49:33Z</time>
</trkpt>
<trkpt lat="37.8350073" lon="-1.36000629">
<ele>581</ele>
<time>2014-03-08T12:49:35Z</time>
</trkpt>
<trkpt lat="37.8350949" lon="-1.35986742">
<ele>580</ele>
<time>2014-03-08T12:49:37Z</time>
</trkpt>
<trkpt lat="37.83521715" lon="-1.35971831">
<ele>580</ele>
<time>2014-03-08T12:49:39Z</time>
</trkpt>
<trkpt lat="37.83532617" lon="-1.35959448">
<ele>581</ele>
<time>2014-03-08T12:49:41Z</time>
</trkpt>
<trkpt lat="37.83544532" lon="-1.35945088">
<ele>582</ele>
<time>2014-03-08T12:49:43Z</time>
</trkpt>
<trkpt lat="37.83563683" lon="-1.35938847">
<ele>584</ele>
<time>2014-03-08T12:49:45Z</time>
</trkpt>
<trkpt lat="37.8357904" lon="-1.35941271">
<ele>590</ele>
<time>2014-03-08T12:49:47Z</time>
</trkpt>
<trkpt lat="37.8359367" lon="-1.35937536">
<ele>590</ele>
<time>2014-03-08T12:49:49Z</time>
</trkpt>
<trkpt lat="37.83608332" lon="-1.35937307">
<ele>588</ele>
<time>2014-03-08T12:49:51Z</time>
</trkpt>
<trkpt lat="37.83622962" lon="-1.35942405">
<ele>587</ele>
<time>2014-03-08T12:49:53Z</time>
</trkpt>
<trkpt lat="37.83635087" lon="-1.35946524">
<ele>591</ele>
<time>2014-03-08T12:49:55Z</time>
</trkpt>
<trkpt lat="37.83645251" lon="-1.35952594">
<ele>590</ele>
<time>2014-03-08T12:49:57Z</time>
</trkpt>
<trkpt lat="37.83657567" lon="-1.35961497">
<ele>590</ele>
<time>2014-03-08T12:49:59Z</time>
</trkpt>
<trkpt lat="37.83667321" lon="-1.35965155">
<ele>589</ele>
<time>2014-03-08T12:50:01Z</time>
</trkpt>
<trkpt lat="37.83677245" lon="-1.35972648">
<ele>586</ele>
<time>2014-03-08T12:50:03Z</time>
</trkpt>
<trkpt lat="37.83690302" lon="-1.35979375">
<ele>583</ele>
<time>2014-03-08T12:50:05Z</time>
</trkpt>
<trkpt lat="37.8370224" lon="-1.35989361">
<ele>580</ele>
<time>2014-03-08T12:50:07Z</time>
</trkpt>
<trkpt lat="37.83715718" lon="-1.35994213">
<ele>577</ele>
<time>2014-03-08T12:50:09Z</time>
</trkpt>
<trkpt lat="37.83730821" lon="-1.35994797">
<ele>574</ele>
<time>2014-03-08T12:50:11Z</time>
</trkpt>
<trkpt lat="37.83745989" lon="-1.3599286">
<ele>571</ele>
<time>2014-03-08T12:50:13Z</time>
</trkpt>
<trkpt lat="37.83759028" lon="-1.3599375">
<ele>569</ele>
<time>2014-03-08T12:50:15Z</time>
</trkpt>
<trkpt lat="37.83774002" lon="-1.35994152">
<ele>564</ele>
<time>2014-03-08T12:50:17Z</time>
</trkpt>
<trkpt lat="37.83789525" lon="-1.35993786">
<ele>563</ele>
<time>2014-03-08T12:50:19Z</time>
</trkpt>
<trkpt lat="37.83801822" lon="-1.35993277">
<ele>565</ele>
<time>2014-03-08T12:50:21Z</time>
</trkpt>
<trkpt lat="37.83812557" lon="-1.35990165">
<ele>565</ele>
<time>2014-03-08T12:50:23Z</time>
</trkpt>
<trkpt lat="37.83824586" lon="-1.35985202">
<ele>560</ele>
<time>2014-03-08T12:50:25Z</time>
</trkpt>
<trkpt lat="37.83838366" lon="-1.35983364">
<ele>557</ele>
<time>2014-03-08T12:50:27Z</time>
</trkpt>
<trkpt lat="37.83851395" lon="-1.35982127">
<ele>557</ele>
<time>2014-03-08T12:50:29Z</time>
</trkpt>
<trkpt lat="37.8386371" lon="-1.35978733">
<ele>556</ele>
<time>2014-03-08T12:50:31Z</time>
</trkpt>
<trkpt lat="37.8387753" lon="-1.35977148">
<ele>558</ele>
<time>2014-03-08T12:50:33Z</time>
</trkpt>
<trkpt lat="37.83890597" lon="-1.35975431">
<ele>558</ele>
<time>2014-03-08T12:50:35Z</time>
</trkpt>
<trkpt lat="37.83903026" lon="-1.35969889">
<ele>556</ele>
<time>2014-03-08T12:50:37Z</time>
</trkpt>
<trkpt lat="37.83913331" lon="-1.35962366">
<ele>554</ele>
<time>2014-03-08T12:50:39Z</time>
</trkpt>
<trkpt lat="37.83927255" lon="-1.35956939">
<ele>554</ele>
<time>2014-03-08T12:50:41Z</time>
</trkpt>
<trkpt lat="37.83939978" lon="-1.35949952">
<ele>556</ele>
<time>2014-03-08T12:50:43Z</time>
</trkpt>
<trkpt lat="37.8395103" lon="-1.35943157">
<ele>558</ele>
<time>2014-03-08T12:50:45Z</time>
</trkpt>
<trkpt lat="37.83972062" lon="-1.35920206">
<ele>565</ele>
<time>2014-03-08T12:50:49Z</time>
</trkpt>
<trkpt lat="37.83980994" lon="-1.35912015">
<ele>569</ele>
<time>2014-03-08T12:50:51Z</time>
</trkpt>
<trkpt lat="37.83989093" lon="-1.35906337">
<ele>572</ele>
<time>2014-03-08T12:50:53Z</time>
</trkpt>
<trkpt lat="37.83999726" lon="-1.35900391">
<ele>573</ele>
<time>2014-03-08T12:50:55Z</time>
</trkpt>
<trkpt lat="37.84013289" lon="-1.35899478">
<ele>578</ele>
<time>2014-03-08T12:50:57Z</time>
</trkpt>
<trkpt lat="37.84022568" lon="-1.3590129">
<ele>585</ele>
<time>2014-03-08T12:50:59Z</time>
</trkpt>
<trkpt lat="37.84032294" lon="-1.35903733">
<ele>591</ele>
<time>2014-03-08T12:51:01Z</time>
</trkpt>
<trkpt lat="37.84041271" lon="-1.35912554">
<ele>598</ele>
<time>2014-03-08T12:51:03Z</time>
</trkpt>
<trkpt lat="37.84051352" lon="-1.35915051">
<ele>604</ele>
<time>2014-03-08T12:51:05Z</time>
</trkpt>
<trkpt lat="37.84061011" lon="-1.35916242">
<ele>604</ele>
<time>2014-03-08T12:51:07Z</time>
</trkpt>
<trkpt lat="37.84071323" lon="-1.35921713">
<ele>607</ele>
<time>2014-03-08T12:51:09Z</time>
</trkpt>
<trkpt lat="37.84079918" lon="-1.35930731">
<ele>608</ele>
<time>2014-03-08T12:51:11Z</time>
</trkpt>
<trkpt lat="37.84087516" lon="-1.3594109">
<ele>609</ele>
<time>2014-03-08T12:51:13Z</time>
</trkpt>
<trkpt lat="37.84091998" lon="-1.35955308">
<ele>613</ele>
<time>2014-03-08T12:51:15Z</time>
</trkpt>
<trkpt lat="37.84093493" lon="-1.35967338">
<ele>618</ele>
<time>2014-03-08T12:51:17Z</time>
</trkpt>
<trkpt lat="37.84094018" lon="-1.35979816">
<ele>620</ele>
<time>2014-03-08T12:51:19Z</time>
</trkpt>
<trkpt lat="37.8409122" lon="-1.35995299">
<ele>622</ele>
<time>2014-03-08T12:51:21Z</time>
</trkpt>
<trkpt lat="37.84084057" lon="-1.36012733">
<ele>626</ele>
<time>2014-03-08T12:51:23Z</time>
</trkpt>
<trkpt lat="37.84077165" lon="-1.360256">
<ele>628</ele>
<time>2014-03-08T12:51:25Z</time>
</trkpt>
<trkpt lat="37.84067098" lon="-1.36036979">
<ele>629</ele>
<time>2014-03-08T12:51:27Z</time>
</trkpt>
<trkpt lat="37.84053618" lon="-1.36045917">
<ele>632</ele>
<time>2014-03-08T12:51:29Z</time>
</trkpt>
<trkpt lat="37.84037981" lon="-1.36046248">
<ele>636</ele>
<time>2014-03-08T12:51:31Z</time>
</trkpt>
<trkpt lat="37.84024402" lon="-1.36049201">
<ele>636</ele>
<time>2014-03-08T12:51:33Z</time>
</trkpt>
<trkpt lat="37.84017067" lon="-1.3605649">
<ele>640</ele>
<time>2014-03-08T12:51:35Z</time>
</trkpt>
<trkpt lat="37.84004967" lon="-1.36061827">
<ele>638</ele>
<time>2014-03-08T12:51:37Z</time>
</trkpt>
<trkpt lat="37.83995344" lon="-1.36067352">
<ele>639</ele>
<time>2014-03-08T12:51:39Z</time>
</trkpt>
<trkpt lat="37.83993479" lon="-1.36070118">
<ele>637</ele>
<time>2014-03-08T12:51:41Z</time>
</trkpt>
<trkpt lat="37.8398848" lon="-1.36079028">
<ele>638</ele>
<time>2014-03-08T12:51:43Z</time>
</trkpt>
<trkpt lat="37.83966858" lon="-1.36078787">
<ele>634</ele>
<time>2014-03-08T12:51:45Z</time>
</trkpt>
<trkpt lat="37.83953021" lon="-1.36080592">
<ele>633</ele>
<time>2014-03-08T12:51:47Z</time>
</trkpt>
<trkpt lat="37.83944804" lon="-1.36078521">
<ele>631</ele>
<time>2014-03-08T12:51:49Z</time>
</trkpt>
<trkpt lat="37.8392556" lon="-1.36068343">
<ele>634</ele>
<time>2014-03-08T12:51:51Z</time>
</trkpt>
<trkpt lat="37.83915705" lon="-1.3605972">
<ele>635</ele>
<time>2014-03-08T12:51:53Z</time>
</trkpt>
<trkpt lat="37.83910768" lon="-1.36055511">
<ele>636</ele>
<time>2014-03-08T12:51:55Z</time>
</trkpt>
<trkpt lat="37.83899438" lon="-1.36045467">
<ele>634</ele>
<time>2014-03-08T12:51:57Z</time>
</trkpt>
<trkpt lat="37.83892376" lon="-1.36030073">
<ele>635</ele>
<time>2014-03-08T12:51:59Z</time>
</trkpt>
<trkpt lat="37.83886201" lon="-1.36013128">
<ele>636</ele>
<time>2014-03-08T12:52:01Z</time>
</trkpt>
<trkpt lat="37.83876855" lon="-1.35993815">
<ele>629</ele>
<time>2014-03-08T12:52:03Z</time>
</trkpt>
<trkpt lat="37.83867967" lon="-1.35976579">
<ele>629</ele>
<time>2014-03-08T12:52:05Z</time>
</trkpt>
<trkpt lat="37.83865859" lon="-1.3596278">
<ele>628</ele>
<time>2014-03-08T12:52:07Z</time>
</trkpt>
<trkpt lat="37.83863546" lon="-1.35942575">
<ele>624</ele>
<time>2014-03-08T12:52:09Z</time>
</trkpt>
<trkpt lat="37.83860919" lon="-1.35921946">
<ele>623</ele>
<time>2014-03-08T12:52:11Z</time>
</trkpt>
<trkpt lat="37.8386232" lon="-1.35904398">
<ele>622</ele>
<time>2014-03-08T12:52:13Z</time>
</trkpt>
<trkpt lat="37.83863465" lon="-1.35885569">
<ele>621</ele>
<time>2014-03-08T12:52:15Z</time>
</trkpt>
<trkpt lat="37.83867781" lon="-1.35868931">
<ele>619</ele>
<time>2014-03-08T12:52:17Z</time>
</trkpt>
<trkpt lat="37.83873921" lon="-1.35851618">
<ele>618</ele>
<time>2014-03-08T12:52:19Z</time>
</trkpt>
<trkpt lat="37.83876414" lon="-1.35832496">
<ele>619</ele>
<time>2014-03-08T12:52:21Z</time>
</trkpt>
<trkpt lat="37.83878053" lon="-1.35817267">
<ele>619</ele>
<time>2014-03-08T12:52:23Z</time>
</trkpt>
<trkpt lat="37.83883319" lon="-1.35807194">
<ele>618</ele>
<time>2014-03-08T12:52:25Z</time>
</trkpt>
<trkpt lat="37.83889643" lon="-1.35796175">
<ele>619</ele>
<time>2014-03-08T12:52:27Z</time>
</trkpt>
<trkpt lat="37.83897487" lon="-1.35784104">
<ele>620</ele>
<time>2014-03-08T12:52:29Z</time>
</trkpt>
<trkpt lat="37.83903432" lon="-1.35776315">
<ele>621</ele>
<time>2014-03-08T12:52:31Z</time>
</trkpt>
<trkpt lat="37.83912766" lon="-1.35763674">
<ele>621</ele>
<time>2014-03-08T12:52:33Z</time>
</trkpt>
<trkpt lat="37.83919981" lon="-1.3574953">
<ele>622</ele>
<time>2014-03-08T12:52:35Z</time>
</trkpt>
<trkpt lat="37.83929272" lon="-1.35737203">
<ele>622</ele>
<time>2014-03-08T12:52:37Z</time>
</trkpt>
<trkpt lat="37.83939578" lon="-1.35723528">
<ele>621</ele>
<time>2014-03-08T12:52:39Z</time>
</trkpt>
<trkpt lat="37.83946545" lon="-1.35709598">
<ele>620</ele>
<time>2014-03-08T12:52:41Z</time>
</trkpt>
<trkpt lat="37.83956189" lon="-1.35699304">
<ele>621</ele>
<time>2014-03-08T12:52:43Z</time>
</trkpt>
<trkpt lat="37.83970217" lon="-1.35690687">
<ele>625</ele>
<time>2014-03-08T12:52:45Z</time>
</trkpt>
<trkpt lat="37.83978913" lon="-1.35680137">
<ele>629</ele>
<time>2014-03-08T12:52:47Z</time>
</trkpt>
<trkpt lat="37.83991588" lon="-1.35668913">
<ele>630</ele>
<time>2014-03-08T12:52:49Z</time>
</trkpt>
<trkpt lat="37.84005367" lon="-1.35661031">
<ele>633</ele>
<time>2014-03-08T12:52:51Z</time>
</trkpt>
<trkpt lat="37.840188" lon="-1.35652582">
<ele>636</ele>
<time>2014-03-08T12:52:53Z</time>
</trkpt>
<trkpt lat="37.84028698" lon="-1.35645291">
<ele>639</ele>
<time>2014-03-08T12:52:55Z</time>
</trkpt>
<trkpt lat="37.84040842" lon="-1.35637175">
<ele>637</ele>
<time>2014-03-08T12:52:57Z</time>
</trkpt>
<trkpt lat="37.84056276" lon="-1.35628459">
<ele>644</ele>
<time>2014-03-08T12:52:59Z</time>
</trkpt>
<trkpt lat="37.84068977" lon="-1.35621707">
<ele>649</ele>
<time>2014-03-08T12:53:01Z</time>
</trkpt>
<trkpt lat="37.84082503" lon="-1.3561835">
<ele>647</ele>
<time>2014-03-08T12:53:03Z</time>
</trkpt>
<trkpt lat="37.84095838" lon="-1.35611663">
<ele>647</ele>
<time>2014-03-08T12:53:05Z</time>
</trkpt>
<trkpt lat="37.84106851" lon="-1.35605964">
<ele>646</ele>
<time>2014-03-08T12:53:07Z</time>
</trkpt>
<trkpt lat="37.84119007" lon="-1.35605333">
<ele>650</ele>
<time>2014-03-08T12:53:09Z</time>
</trkpt>
<trkpt lat="37.84132111" lon="-1.35606421">
<ele>650</ele>
<time>2014-03-08T12:53:11Z</time>
</trkpt>
<trkpt lat="37.84146459" lon="-1.35608682">
<ele>650</ele>
<time>2014-03-08T12:53:13Z</time>
</trkpt>
<trkpt lat="37.84158377" lon="-1.35614126">
<ele>650</ele>
<time>2014-03-08T12:53:15Z</time>
</trkpt>
<trkpt lat="37.84166812" lon="-1.35618751">
<ele>650</ele>
<time>2014-03-08T12:53:17Z</time>
</trkpt>
<trkpt lat="37.84173947" lon="-1.3562678">
<ele>651</ele>
<time>2014-03-08T12:53:19Z</time>
</trkpt>
<trkpt lat="37.84177479" lon="-1.35646461">
<ele>645</ele>
<time>2014-03-08T12:53:21Z</time>
</trkpt>
<trkpt lat="37.84174448" lon="-1.35662042">
<ele>645</ele>
<time>2014-03-08T12:53:23Z</time>
</trkpt>
<trkpt lat="37.84169246" lon="-1.35672403">
<ele>643</ele>
<time>2014-03-08T12:53:25Z</time>
</trkpt>
<trkpt lat="37.84164776" lon="-1.35687658">
<ele>644</ele>
<time>2014-03-08T12:53:27Z</time>
</trkpt>
<trkpt lat="37.84160199" lon="-1.35706326">
<ele>643</ele>
<time>2014-03-08T12:53:29Z</time>
</trkpt>
<trkpt lat="37.84151211" lon="-1.35716768">
<ele>644</ele>
<time>2014-03-08T12:53:31Z</time>
</trkpt>
<trkpt lat="37.84143932" lon="-1.35728338">
<ele>644</ele>
<time>2014-03-08T12:53:33Z</time>
</trkpt>
<trkpt lat="37.84134899" lon="-1.35741242">
<ele>643</ele>
<time>2014-03-08T12:53:35Z</time>
</trkpt>
<trkpt lat="37.84122007" lon="-1.35746161">
<ele>643</ele>
<time>2014-03-08T12:53:37Z</time>
</trkpt>
<trkpt lat="37.84109427" lon="-1.35752996">
<ele>643</ele>
<time>2014-03-08T12:53:39Z</time>
</trkpt>
<trkpt lat="37.84092264" lon="-1.35759302">
<ele>644</ele>
<time>2014-03-08T12:53:41Z</time>
</trkpt>
<trkpt lat="37.84077606" lon="-1.35755103">
<ele>645</ele>
<time>2014-03-08T12:53:43Z</time>
</trkpt>
<trkpt lat="37.84064014" lon="-1.35750979">
<ele>643</ele>
<time>2014-03-08T12:53:45Z</time>
</trkpt>
<trkpt lat="37.84047735" lon="-1.35746225">
<ele>645</ele>
<time>2014-03-08T12:53:47Z</time>
</trkpt>
<trkpt lat="37.84035447" lon="-1.35738709">
<ele>646</ele>
<time>2014-03-08T12:53:49Z</time>
</trkpt>
<trkpt lat="37.84024893" lon="-1.35733296">
<ele>647</ele>
<time>2014-03-08T12:53:51Z</time>
</trkpt>
<trkpt lat="37.84009421" lon="-1.3571984">
<ele>649</ele>
<time>2014-03-08T12:53:53Z</time>
</trkpt>
<trkpt lat="37.84002829" lon="-1.35709564">
<ele>653</ele>
<time>2014-03-08T12:53:55Z</time>
</trkpt>
<trkpt lat="37.83997468" lon="-1.35696461">
<ele>655</ele>
<time>2014-03-08T12:53:57Z</time>
</trkpt>
<trkpt lat="37.83990621" lon="-1.35675906">
<ele>656</ele>
<time>2014-03-08T12:53:59Z</time>
</trkpt>
<trkpt lat="37.83984539" lon="-1.35656545">
<ele>657</ele>
<time>2014-03-08T12:54:01Z</time>
</trkpt>
<trkpt lat="37.83977914" lon="-1.35638237">
<ele>658</ele>
<time>2014-03-08T12:54:03Z</time>
</trkpt>
<trkpt lat="37.83975743" lon="-1.35616405">
<ele>661</ele>
<time>2014-03-08T12:54:05Z</time>
</trkpt>
<trkpt lat="37.83975987" lon="-1.35602729">
<ele>665</ele>
<time>2014-03-08T12:54:07Z</time>
</trkpt>
<trkpt lat="37.83977942" lon="-1.3558691">
<ele>666</ele>
<time>2014-03-08T12:54:09Z</time>
</trkpt>
<trkpt lat="37.83981052" lon="-1.35569439">
<ele>666</ele>
<time>2014-03-08T12:54:11Z</time>
</trkpt>
<trkpt lat="37.83985933" lon="-1.35553677">
<ele>668</ele>
<time>2014-03-08T12:54:13Z</time>
</trkpt>
<trkpt lat="37.83991623" lon="-1.35537248">
<ele>668</ele>
<time>2014-03-08T12:54:15Z</time>
</trkpt>
<trkpt lat="37.84000134" lon="-1.35521886">
<ele>668</ele>
<time>2014-03-08T12:54:17Z</time>
</trkpt>
<trkpt lat="37.84009589" lon="-1.35508895">
<ele>671</ele>
<time>2014-03-08T12:54:19Z</time>
</trkpt>
<trkpt lat="37.84022076" lon="-1.35502907">
<ele>670</ele>
<time>2014-03-08T12:54:21Z</time>
</trkpt>
<trkpt lat="37.84034724" lon="-1.35500333">
<ele>668</ele>
<time>2014-03-08T12:54:23Z</time>
</trkpt>
<trkpt lat="37.84048048" lon="-1.35508377">
<ele>668</ele>
<time>2014-03-08T12:54:25Z</time>
</trkpt>
<trkpt lat="37.8405715" lon="-1.3551228">
<ele>671</ele>
<time>2014-03-08T12:54:27Z</time>
</trkpt>
<trkpt lat="37.84069485" lon="-1.35517387">
<ele>671</ele>
<time>2014-03-08T12:54:29Z</time>
</trkpt>
<trkpt lat="37.84082113" lon="-1.35524908">
<ele>668</ele>
<time>2014-03-08T12:54:31Z</time>
</trkpt>
<trkpt lat="37.84091156" lon="-1.35533595">
<ele>671</ele>
<time>2014-03-08T12:54:33Z</time>
</trkpt>
<trkpt lat="37.84097654" lon="-1.3554338">
<ele>672</ele>
<time>2014-03-08T12:54:35Z</time>
</trkpt>
<trkpt lat="37.84104834" lon="-1.35557416">
<ele>669</ele>
<time>2014-03-08T12:54:37Z</time>
</trkpt>
<trkpt lat="37.84108061" lon="-1.35571299">
<ele>671</ele>
<time>2014-03-08T12:54:39Z</time>
</trkpt>
<trkpt lat="37.84104716" lon="-1.35586053">
<ele>669</ele>
<time>2014-03-08T12:54:41Z</time>
</trkpt>
<trkpt lat="37.84100231" lon="-1.35599752">
<ele>671</ele>
<time>2014-03-08T12:54:43Z</time>
</trkpt>
<trkpt lat="37.84090807" lon="-1.35613264">
<ele>673</ele>
<time>2014-03-08T12:54:45Z</time>
</trkpt>
<trkpt lat="37.8408266" lon="-1.35627796">
<ele>675</ele>
<time>2014-03-08T12:54:47Z</time>
</trkpt>
<trkpt lat="37.84071679" lon="-1.35644211">
<ele>676</ele>
<time>2014-03-08T12:54:49Z</time>
</trkpt>
<trkpt lat="37.84060432" lon="-1.35653425">
<ele>676</ele>
<time>2014-03-08T12:54:51Z</time>
</trkpt>
<trkpt lat="37.84050618" lon="-1.35661359">
<ele>679</ele>
<time>2014-03-08T12:54:53Z</time>
</trkpt>
<trkpt lat="37.84042275" lon="-1.35668696">
<ele>681</ele>
<time>2014-03-08T12:54:55Z</time>
</trkpt>
<trkpt lat="37.84032066" lon="-1.35676324">
<ele>684</ele>
<time>2014-03-08T12:54:57Z</time>
</trkpt>
<trkpt lat="37.84019812" lon="-1.35687033">
<ele>687</ele>
<time>2014-03-08T12:54:59Z</time>
</trkpt>
<trkpt lat="37.8400972" lon="-1.35696453">
<ele>688</ele>
<time>2014-03-08T12:55:01Z</time>
</trkpt>
<trkpt lat="37.84000251" lon="-1.35708339">
<ele>692</ele>
<time>2014-03-08T12:55:03Z</time>
</trkpt>
<trkpt lat="37.83987624" lon="-1.3571969">
<ele>696</ele>
<time>2014-03-08T12:55:05Z</time>
</trkpt>
<trkpt lat="37.83979757" lon="-1.35727678">
<ele>705</ele>
<time>2014-03-08T12:55:07Z</time>
</trkpt>
<trkpt lat="37.83968276" lon="-1.35737343">
<ele>706</ele>
<time>2014-03-08T12:55:09Z</time>
</trkpt>
<trkpt lat="37.8395547" lon="-1.35747464">
<ele>706</ele>
<time>2014-03-08T12:55:11Z</time>
</trkpt>
<trkpt lat="37.83939568" lon="-1.3576004">
<ele>715</ele>
<time>2014-03-08T12:55:13Z</time>
</trkpt>
<trkpt lat="37.83925264" lon="-1.35768877">
<ele>722</ele>
<time>2014-03-08T12:55:15Z</time>
</trkpt>
<trkpt lat="37.83908904" lon="-1.35775005">
<ele>724</ele>
<time>2014-03-08T12:55:17Z</time>
</trkpt>
<trkpt lat="37.8389425" lon="-1.35778636">
<ele>731</ele>
<time>2014-03-08T12:55:19Z</time>
</trkpt>
<trkpt lat="37.83878897" lon="-1.35782151">
<ele>737</ele>
<time>2014-03-08T12:55:21Z</time>
</trkpt>
<trkpt lat="37.83861577" lon="-1.35782174">
<ele>740</ele>
<time>2014-03-08T12:55:23Z</time>
</trkpt>
<trkpt lat="37.8384659" lon="-1.35779205">
<ele>742</ele>
<time>2014-03-08T12:55:25Z</time>
</trkpt>
<trkpt lat="37.83833617" lon="-1.35770003">
<ele>742</ele>
<time>2014-03-08T12:55:27Z</time>
</trkpt>
<trkpt lat="37.83822234" lon="-1.35758877">
<ele>743</ele>
<time>2014-03-08T12:55:29Z</time>
</trkpt>
<trkpt lat="37.83807749" lon="-1.35741204">
<ele>749</ele>
<time>2014-03-08T12:55:31Z</time>
</trkpt>
<trkpt lat="37.83796767" lon="-1.35727514">
<ele>752</ele>
<time>2014-03-08T12:55:33Z</time>
</trkpt>
<trkpt lat="37.83792924" lon="-1.35717249">
<ele>756</ele>
<time>2014-03-08T12:55:35Z</time>
</trkpt>
<trkpt lat="37.83786088" lon="-1.35696728">
<ele>758</ele>
<time>2014-03-08T12:55:37Z</time>
</trkpt>
<trkpt lat="37.83785611" lon="-1.35677056">
<ele>761</ele>
<time>2014-03-08T12:55:39Z</time>
</trkpt>
<trkpt lat="37.83786978" lon="-1.35658955">
<ele>762</ele>
<time>2014-03-08T12:55:41Z</time>
</trkpt>
<trkpt lat="37.83788501" lon="-1.35639055">
<ele>765</ele>
<time>2014-03-08T12:55:43Z</time>
</trkpt>
<trkpt lat="37.83796079" lon="-1.35618012">
<ele>763</ele>
<time>2014-03-08T12:55:45Z</time>
</trkpt>
<trkpt lat="37.83806338" lon="-1.35600358">
<ele>763</ele>
<time>2014-03-08T12:55:47Z</time>
</trkpt>
<trkpt lat="37.83813769" lon="-1.35588191">
<ele>760</ele>
<time>2014-03-08T12:55:49Z</time>
</trkpt>
<trkpt lat="37.83826003" lon="-1.35574463">
<ele>762</ele>
<time>2014-03-08T12:55:51Z</time>
</trkpt>
<trkpt lat="37.83846284" lon="-1.35571189">
<ele>759</ele>
<time>2014-03-08T12:55:53Z</time>
</trkpt>
<trkpt lat="37.83859403" lon="-1.35567529">
<ele>759</ele>
<time>2014-03-08T12:55:55Z</time>
</trkpt>
<trkpt lat="37.83874046" lon="-1.35563408">
<ele>758</ele>
<time>2014-03-08T12:55:57Z</time>
</trkpt>
<trkpt lat="37.83890465" lon="-1.35566503">
<ele>756</ele>
<time>2014-03-08T12:55:59Z</time>
</trkpt>
<trkpt lat="37.83905325" lon="-1.35570325">
<ele>756</ele>
<time>2014-03-08T12:56:01Z</time>
</trkpt>
<trkpt lat="37.83918806" lon="-1.35576366">
<ele>756</ele>
<time>2014-03-08T12:56:03Z</time>
</trkpt>
<trkpt lat="37.83932043" lon="-1.3558455">
<ele>754</ele>
<time>2014-03-08T12:56:05Z</time>
</trkpt>
<trkpt lat="37.83947196" lon="-1.35592856">
<ele>757</ele>
<time>2014-03-08T12:56:07Z</time>
</trkpt>
<trkpt lat="37.83958743" lon="-1.35597758">
<ele>758</ele>
<time>2014-03-08T12:56:09Z</time>
</trkpt>
<trkpt lat="37.83971816" lon="-1.35610285">
<ele>758</ele>
<time>2014-03-08T12:56:11Z</time>
</trkpt>
<trkpt lat="37.83985456" lon="-1.35624192">
<ele>761</ele>
<time>2014-03-08T12:56:13Z</time>
</trkpt>
<trkpt lat="37.83996409" lon="-1.35632899">
<ele>763</ele>
<time>2014-03-08T12:56:15Z</time>
</trkpt>
<trkpt lat="37.84008257" lon="-1.356451">
<ele>764</ele>
<time>2014-03-08T12:56:17Z</time>
</trkpt>
<trkpt lat="37.84018285" lon="-1.35657084">
<ele>768</ele>
<time>2014-03-08T12:56:19Z</time>
</trkpt>
<trkpt lat="37.84025772" lon="-1.35666625">
<ele>768</ele>
<time>2014-03-08T12:56:21Z</time>
</trkpt>
<trkpt lat="37.84032715" lon="-1.35680306">
<ele>766</ele>
<time>2014-03-08T12:56:23Z</time>
</trkpt>
<trkpt lat="37.84040742" lon="-1.35696478">
<ele>767</ele>
<time>2014-03-08T12:56:25Z</time>
</trkpt>
<trkpt lat="37.84042551" lon="-1.35710845">
<ele>766</ele>
<time>2014-03-08T12:56:27Z</time>
</trkpt>
<trkpt lat="37.84044139" lon="-1.35726229">
<ele>766</ele>
<time>2014-03-08T12:56:29Z</time>
</trkpt>
<trkpt lat="37.84041976" lon="-1.35739083">
<ele>764</ele>
<time>2014-03-08T12:56:31Z</time>
</trkpt>
<trkpt lat="37.84040751" lon="-1.35751261">
<ele>761</ele>
<time>2014-03-08T12:56:33Z</time>
</trkpt>
<trkpt lat="37.84037535" lon="-1.35765957">
<ele>762</ele>
<time>2014-03-08T12:56:35Z</time>
</trkpt>
<trkpt lat="37.8403309" lon="-1.35784757">
<ele>762</ele>
<time>2014-03-08T12:56:37Z</time>
</trkpt>
<trkpt lat="37.84028804" lon="-1.35803861">
<ele>764</ele>
<time>2014-03-08T12:56:39Z</time>
</trkpt>
<trkpt lat="37.84027204" lon="-1.35823695">
<ele>765</ele>
<time>2014-03-08T12:56:41Z</time>
</trkpt>
<trkpt lat="37.84026548" lon="-1.35842754">
<ele>766</ele>
<time>2014-03-08T12:56:43Z</time>
</trkpt>
<trkpt lat="37.8402381" lon="-1.35859348">
<ele>768</ele>
<time>2014-03-08T12:56:45Z</time>
</trkpt>
<trkpt lat="37.84023167" lon="-1.35874971">
<ele>766</ele>
<time>2014-03-08T12:56:47Z</time>
</trkpt>
<trkpt lat="37.84025856" lon="-1.35893931">
<ele>765</ele>
<time>2014-03-08T12:56:49Z</time>
</trkpt>
<trkpt lat="37.84030109" lon="-1.35910681">
<ele>764</ele>
<time>2014-03-08T12:56:51Z</time>
</trkpt>
<trkpt lat="37.84031285" lon="-1.35926837">
<ele>764</ele>
<time>2014-03-08T12:56:53Z</time>
</trkpt>
<trkpt lat="37.84035928" lon="-1.35940022">
<ele>762</ele>
<time>2014-03-08T12:56:55Z</time>
</trkpt>
<trkpt lat="37.84037917" lon="-1.35956371">
<ele>758</ele>
<time>2014-03-08T12:56:57Z</time>
</trkpt>
<trkpt lat="37.84038352" lon="-1.35975455">
<ele>755</ele>
<time>2014-03-08T12:56:59Z</time>
</trkpt>
<trkpt lat="37.84039505" lon="-1.3599638">
<ele>751</ele>
<time>2014-03-08T12:57:01Z</time>
</trkpt>
<trkpt lat="37.84041532" lon="-1.36016237">
<ele>752</ele>
<time>2014-03-08T12:57:03Z</time>
</trkpt>
<trkpt lat="37.8404588" lon="-1.36035996">
<ele>749</ele>
<time>2014-03-08T12:57:05Z</time>
</trkpt>
<trkpt lat="37.84047846" lon="-1.36051024">
<ele>748</ele>
<time>2014-03-08T12:57:07Z</time>
</trkpt>
<trkpt lat="37.84047439" lon="-1.36073137">
<ele>745</ele>
<time>2014-03-08T12:57:09Z</time>
</trkpt>
<trkpt lat="37.84047636" lon="-1.36094123">
<ele>746</ele>
<time>2014-03-08T12:57:11Z</time>
</trkpt>
<trkpt lat="37.84045752" lon="-1.36118062">
<ele>746</ele>
<time>2014-03-08T12:57:13Z</time>
</trkpt>
<trkpt lat="37.84047442" lon="-1.36131556">
<ele>740</ele>
<time>2014-03-08T12:57:15Z</time>
</trkpt>
<trkpt lat="37.84046658" lon="-1.3615269">
<ele>734</ele>
<time>2014-03-08T12:57:17Z</time>
</trkpt>
<trkpt lat="37.84046924" lon="-1.36173938">
<ele>732</ele>
<time>2014-03-08T12:57:19Z</time>
</trkpt>
<trkpt lat="37.84054654" lon="-1.36191277">
<ele>729</ele>
<time>2014-03-08T12:57:21Z</time>
</trkpt>
<trkpt lat="37.84063955" lon="-1.36211317">
<ele>727</ele>
<time>2014-03-08T12:57:23Z</time>
</trkpt>
<trkpt lat="37.84072245" lon="-1.36230607">
<ele>724</ele>
<time>2014-03-08T12:57:25Z</time>
</trkpt>
<trkpt lat="37.84082203" lon="-1.3625451">
<ele>721</ele>
<time>2014-03-08T12:57:27Z</time>
</trkpt>
<trkpt lat="37.840982" lon="-1.36271157">
<ele>724</ele>
<time>2014-03-08T12:57:29Z</time>
</trkpt>
<trkpt lat="37.84111915" lon="-1.3627827">
<ele>723</ele>
<time>2014-03-08T12:57:31Z</time>
</trkpt>
<trkpt lat="37.84125764" lon="-1.3629122">
<ele>723</ele>
<time>2014-03-08T12:57:33Z</time>
</trkpt>
<trkpt lat="37.84145914" lon="-1.36301424">
<ele>719</ele>
<time>2014-03-08T12:57:35Z</time>
</trkpt>
<trkpt lat="37.84160906" lon="-1.36315173">
<ele>719</ele>
<time>2014-03-08T12:57:37Z</time>
</trkpt>
<trkpt lat="37.84176984" lon="-1.36331824">
<ele>715</ele>
<time>2014-03-08T12:57:39Z</time>
</trkpt>
<trkpt lat="37.84193249" lon="-1.36345277">
<ele>715</ele>
<time>2014-03-08T12:57:41Z</time>
</trkpt>
<trkpt lat="37.84205865" lon="-1.3635486">
<ele>711</ele>
<time>2014-03-08T12:57:43Z</time>
</trkpt>
<trkpt lat="37.84223534" lon="-1.36366978">
<ele>708</ele>
<time>2014-03-08T12:57:45Z</time>
</trkpt>
<trkpt lat="37.84240633" lon="-1.36381857">
<ele>706</ele>
<time>2014-03-08T12:57:47Z</time>
</trkpt>
<trkpt lat="37.84251986" lon="-1.3639183">
<ele>706</ele>
<time>2014-03-08T12:57:49Z</time>
</trkpt>
<trkpt lat="37.84270843" lon="-1.3640055">
<ele>704</ele>
<time>2014-03-08T12:57:51Z</time>
</trkpt>
<trkpt lat="37.84291646" lon="-1.36406268">
<ele>702</ele>
<time>2014-03-08T12:57:53Z</time>
</trkpt>
<trkpt lat="37.8431067" lon="-1.36412675">
<ele>700</ele>
<time>2014-03-08T12:57:55Z</time>
</trkpt>
<trkpt lat="37.84332834" lon="-1.36413509">
<ele>697</ele>
<time>2014-03-08T12:57:57Z</time>
</trkpt>
<trkpt lat="37.84357963" lon="-1.36412583">
<ele>697</ele>
<time>2014-03-08T12:57:59Z</time>
</trkpt>
<trkpt lat="37.84380949" lon="-1.36412276">
<ele>696</ele>
<time>2014-03-08T12:58:01Z</time>
</trkpt>
<trkpt lat="37.84398552" lon="-1.36410491">
<ele>694</ele>
<time>2014-03-08T12:58:03Z</time>
</trkpt>
<trkpt lat="37.8441761" lon="-1.36409318">
<ele>696</ele>
<time>2014-03-08T12:58:05Z</time>
</trkpt>
<trkpt lat="37.84436329" lon="-1.36402582">
<ele>693</ele>
<time>2014-03-08T12:58:07Z</time>
</trkpt>
<trkpt lat="37.84456443" lon="-1.3640276">
<ele>691</ele>
<time>2014-03-08T12:58:09Z</time>
</trkpt>
<trkpt lat="37.84477363" lon="-1.36403049">
<ele>691</ele>
<time>2014-03-08T12:58:11Z</time>
</trkpt>
<trkpt lat="37.84498178" lon="-1.36402734">
<ele>692</ele>
<time>2014-03-08T12:58:13Z</time>
</trkpt>
<trkpt lat="37.84517957" lon="-1.36398727">
<ele>689</ele>
<time>2014-03-08T12:58:15Z</time>
</trkpt>
<trkpt lat="37.84538887" lon="-1.36393581">
<ele>687</ele>
<time>2014-03-08T12:58:17Z</time>
</trkpt>
<trkpt lat="37.84554763" lon="-1.36390878">
<ele>685</ele>
<time>2014-03-08T12:58:19Z</time>
</trkpt>
<trkpt lat="37.84573123" lon="-1.36390086">
<ele>684</ele>
<time>2014-03-08T12:58:21Z</time>
</trkpt>
<trkpt lat="37.8459256" lon="-1.36388929">
<ele>685</ele>
<time>2014-03-08T12:58:23Z</time>
</trkpt>
<trkpt lat="37.84612657" lon="-1.3637468">
<ele>682</ele>
<time>2014-03-08T12:58:25Z</time>
</trkpt>
<trkpt lat="37.84631323" lon="-1.36358232">
<ele>683</ele>
<time>2014-03-08T12:58:27Z</time>
</trkpt>
<trkpt lat="37.84642053" lon="-1.36341483">
<ele>683</ele>
<time>2014-03-08T12:58:29Z</time>
</trkpt>
<trkpt lat="37.84654292" lon="-1.36324277">
<ele>682</ele>
<time>2014-03-08T12:58:31Z</time>
</trkpt>
<trkpt lat="37.84666967" lon="-1.36305111">
<ele>682</ele>
<time>2014-03-08T12:58:33Z</time>
</trkpt>
<trkpt lat="37.8467669" lon="-1.36289666">
<ele>683</ele>
<time>2014-03-08T12:58:35Z</time>
</trkpt>
<trkpt lat="37.84679941" lon="-1.36275481">
<ele>677</ele>
<time>2014-03-08T12:58:37Z</time>
</trkpt>
<trkpt lat="37.84687343" lon="-1.36257982">
<ele>672</ele>
<time>2014-03-08T12:58:39Z</time>
</trkpt>
<trkpt lat="37.84694384" lon="-1.36241635">
<ele>673</ele>
<time>2014-03-08T12:58:41Z</time>
</trkpt>
<trkpt lat="37.847025" lon="-1.36226363">
<ele>673</ele>
<time>2014-03-08T12:58:43Z</time>
</trkpt>
<trkpt lat="37.84711233" lon="-1.36210605">
<ele>677</ele>
<time>2014-03-08T12:58:45Z</time>
</trkpt>
<trkpt lat="37.84715491" lon="-1.36200036">
<ele>676</ele>
<time>2014-03-08T12:58:47Z</time>
</trkpt>
<trkpt lat="37.84720248" lon="-1.36182654">
<ele>670</ele>
<time>2014-03-08T12:58:49Z</time>
</trkpt>
<trkpt lat="37.84724617" lon="-1.3616412">
<ele>670</ele>
<time>2014-03-08T12:58:51Z</time>
</trkpt>
<trkpt lat="37.8472202" lon="-1.36149327">
<ele>673</ele>
<time>2014-03-08T12:58:53Z</time>
</trkpt>
<trkpt lat="37.84716295" lon="-1.36127487">
<ele>672</ele>
<time>2014-03-08T12:58:55Z</time>
</trkpt>
<trkpt lat="37.84710809" lon="-1.36111664">
<ele>673</ele>
<time>2014-03-08T12:58:57Z</time>
</trkpt>
<trkpt lat="37.84705148" lon="-1.36094539">
<ele>672</ele>
<time>2014-03-08T12:58:59Z</time>
</trkpt>
<trkpt lat="37.84694822" lon="-1.36079909">
<ele>670</ele>
<time>2014-03-08T12:59:01Z</time>
</trkpt>
<trkpt lat="37.84688267" lon="-1.36068065">
<ele>669</ele>
<time>2014-03-08T12:59:03Z</time>
</trkpt>
<trkpt lat="37.8468155" lon="-1.36053221">
<ele>669</ele>
<time>2014-03-08T12:59:05Z</time>
</trkpt>
<trkpt lat="37.84673541" lon="-1.36037891">
<ele>667</ele>
<time>2014-03-08T12:59:07Z</time>
</trkpt>
<trkpt lat="37.84666299" lon="-1.36024267">
<ele>666</ele>
<time>2014-03-08T12:59:09Z</time>
</trkpt>
<trkpt lat="37.84658779" lon="-1.36010301">
<ele>664</ele>
<time>2014-03-08T12:59:11Z</time>
</trkpt>
<trkpt lat="37.84653023" lon="-1.35995424">
<ele>662</ele>
<time>2014-03-08T12:59:13Z</time>
</trkpt>
<trkpt lat="37.84648448" lon="-1.35983195">
<ele>661</ele>
<time>2014-03-08T12:59:15Z</time>
</trkpt>
<trkpt lat="37.84640052" lon="-1.35971541">
<ele>660</ele>
<time>2014-03-08T12:59:17Z</time>
</trkpt>
<trkpt lat="37.84635517" lon="-1.35960264">
<ele>660</ele>
<time>2014-03-08T12:59:19Z</time>
</trkpt>
<trkpt lat="37.8462628" lon="-1.35947027">
<ele>652</ele>
<time>2014-03-08T12:59:21Z</time>
</trkpt>
<trkpt lat="37.84612789" lon="-1.35926816">
<ele>644</ele>
<time>2014-03-08T12:59:23Z</time>
</trkpt>
<trkpt lat="37.84601143" lon="-1.35915008">
<ele>643</ele>
<time>2014-03-08T12:59:25Z</time>
</trkpt>
<trkpt lat="37.8459098" lon="-1.35904097">
<ele>639</ele>
<time>2014-03-08T12:59:27Z</time>
</trkpt>
<trkpt lat="37.84579983" lon="-1.35902819">
<ele>634</ele>
<time>2014-03-08T12:59:29Z</time>
</trkpt>
<trkpt lat="37.84572099" lon="-1.35907218">
<ele>628</ele>
<time>2014-03-08T12:59:31Z</time>
</trkpt>
<trkpt lat="37.84561605" lon="-1.35915374">
<ele>627</ele>
<time>2014-03-08T12:59:33Z</time>
</trkpt>
<trkpt lat="37.84555676" lon="-1.35922266">
<ele>627</ele>
<time>2014-03-08T12:59:35Z</time>
</trkpt>
<trkpt lat="37.84549067" lon="-1.35932835">
<ele>626</ele>
<time>2014-03-08T12:59:37Z</time>
</trkpt>
<trkpt lat="37.84540972" lon="-1.35942653">
<ele>625</ele>
<time>2014-03-08T12:59:39Z</time>
</trkpt>
<trkpt lat="37.84538181" lon="-1.35950848">
<ele>621</ele>
<time>2014-03-08T12:59:41Z</time>
</trkpt>
<trkpt lat="37.84537867" lon="-1.35965784">
<ele>617</ele>
<time>2014-03-08T12:59:43Z</time>
</trkpt>
<trkpt lat="37.84539281" lon="-1.35978893">
<ele>613</ele>
<time>2014-03-08T12:59:45Z</time>
</trkpt>
<trkpt lat="37.84542016" lon="-1.35993644">
<ele>609</ele>
<time>2014-03-08T12:59:47Z</time>
</trkpt>
<trkpt lat="37.84551136" lon="-1.36008269">
<ele>606</ele>
<time>2014-03-08T12:59:49Z</time>
</trkpt>
<trkpt lat="37.84560926" lon="-1.36018765">
<ele>608</ele>
<time>2014-03-08T12:59:51Z</time>
</trkpt>
<trkpt lat="37.84572757" lon="-1.36024377">
<ele>605</ele>
<time>2014-03-08T12:59:53Z</time>
</trkpt>
<trkpt lat="37.84585494" lon="-1.36033619">
<ele>602</ele>
<time>2014-03-08T12:59:55Z</time>
</trkpt>
<trkpt lat="37.84600516" lon="-1.36036401">
<ele>602</ele>
<time>2014-03-08T12:59:57Z</time>
</trkpt>
<trkpt lat="37.84616809" lon="-1.36039848">
<ele>599</ele>
<time>2014-03-08T12:59:59Z</time>
</trkpt>
<trkpt lat="37.84632927" lon="-1.36043866">
<ele>601</ele>
<time>2014-03-08T13:00:01Z</time>
</trkpt>
<trkpt lat="37.84652024" lon="-1.36038937">
<ele>590</ele>
<time>2014-03-08T13:00:03Z</time>
</trkpt>
<trkpt lat="37.84669541" lon="-1.36035091">
<ele>588</ele>
<time>2014-03-08T13:00:05Z</time>
</trkpt>
<trkpt lat="37.84684166" lon="-1.36029249">
<ele>585</ele>
<time>2014-03-08T13:00:07Z</time>
</trkpt>
<trkpt lat="37.84697718" lon="-1.36019246">
<ele>578</ele>
<time>2014-03-08T13:00:09Z</time>
</trkpt>
<trkpt lat="37.84713645" lon="-1.36005866">
<ele>579</ele>
<time>2014-03-08T13:00:11Z</time>
</trkpt>
<trkpt lat="37.8472495" lon="-1.35990578">
<ele>573</ele>
<time>2014-03-08T13:00:13Z</time>
</trkpt>
<trkpt lat="37.84737919" lon="-1.35971176">
<ele>570</ele>
<time>2014-03-08T13:00:15Z</time>
</trkpt>
<trkpt lat="37.84752973" lon="-1.35950491">
<ele>568</ele>
<time>2014-03-08T13:00:17Z</time>
</trkpt>
<trkpt lat="37.84764642" lon="-1.35932817">
<ele>567</ele>
<time>2014-03-08T13:00:19Z</time>
</trkpt>
<trkpt lat="37.84774675" lon="-1.35919027">
<ele>563</ele>
<time>2014-03-08T13:00:21Z</time>
</trkpt>
<trkpt lat="37.84784815" lon="-1.35899294">
<ele>561</ele>
<time>2014-03-08T13:00:23Z</time>
</trkpt>
<trkpt lat="37.84795242" lon="-1.35881945">
<ele>560</ele>
<time>2014-03-08T13:00:25Z</time>
</trkpt>
<trkpt lat="37.84808411" lon="-1.35863926">
<ele>556</ele>
<time>2014-03-08T13:00:27Z</time>
</trkpt>
<trkpt lat="37.84818098" lon="-1.35844855">
<ele>555</ele>
<time>2014-03-08T13:00:29Z</time>
</trkpt>
<trkpt lat="37.84827441" lon="-1.35822851">
<ele>555</ele>
<time>2014-03-08T13:00:31Z</time>
</trkpt>
<trkpt lat="37.84842279" lon="-1.35799504">
<ele>555</ele>
<time>2014-03-08T13:00:33Z</time>
</trkpt>
<trkpt lat="37.8485459" lon="-1.35780388">
<ele>553</ele>
<time>2014-03-08T13:00:35Z</time>
</trkpt>
<trkpt lat="37.84868152" lon="-1.35767523">
<ele>550</ele>
<time>2014-03-08T13:00:37Z</time>
</trkpt>
<trkpt lat="37.84882218" lon="-1.35753004">
<ele>548</ele>
<time>2014-03-08T13:00:39Z</time>
</trkpt>
<trkpt lat="37.8489621" lon="-1.35731707">
<ele>545</ele>
<time>2014-03-08T13:00:41Z</time>
</trkpt>
<trkpt lat="37.84907125" lon="-1.35714551">
<ele>537</ele>
<time>2014-03-08T13:00:43Z</time>
</trkpt>
<trkpt lat="37.84918007" lon="-1.35694666">
<ele>531</ele>
<time>2014-03-08T13:00:45Z</time>
</trkpt>
<trkpt lat="37.84926791" lon="-1.35674411">
<ele>526</ele>
<time>2014-03-08T13:00:47Z</time>
</trkpt>
<trkpt lat="37.84935541" lon="-1.35657187">
<ele>525</ele>
<time>2014-03-08T13:00:49Z</time>
</trkpt>
<trkpt lat="37.84944523" lon="-1.3564049">
<ele>524</ele>
<time>2014-03-08T13:00:51Z</time>
</trkpt>
<trkpt lat="37.84942248" lon="-1.35625058">
<ele>523</ele>
<time>2014-03-08T13:00:53Z</time>
</trkpt>
<trkpt lat="37.84946021" lon="-1.3561051">
<ele>522</ele>
<time>2014-03-08T13:00:55Z</time>
</trkpt>
<trkpt lat="37.84951429" lon="-1.35594108">
<ele>521</ele>
<time>2014-03-08T13:00:57Z</time>
</trkpt>
<trkpt lat="37.84950213" lon="-1.35583799">
<ele>518</ele>
<time>2014-03-08T13:00:59Z</time>
</trkpt>
<trkpt lat="37.84951541" lon="-1.35570258">
<ele>515</ele>
<time>2014-03-08T13:01:01Z</time>
</trkpt>
<trkpt lat="37.84953254" lon="-1.35556936">
<ele>514</ele>
<time>2014-03-08T13:01:03Z</time>
</trkpt>
<trkpt lat="37.84942177" lon="-1.35541216">
<ele>512</ele>
<time>2014-03-08T13:01:05Z</time>
</trkpt>
<trkpt lat="37.84931248" lon="-1.35530807">
<ele>511</ele>
<time>2014-03-08T13:01:07Z</time>
</trkpt>
<trkpt lat="37.84918903" lon="-1.35521745">
<ele>509</ele>
<time>2014-03-08T13:01:09Z</time>
</trkpt>
<trkpt lat="37.84904914" lon="-1.3552211">
<ele>510</ele>
<time>2014-03-08T13:01:11Z</time>
</trkpt>
<trkpt lat="37.84890542" lon="-1.35521151">
<ele>510</ele>
<time>2014-03-08T13:01:13Z</time>
</trkpt>
<trkpt lat="37.84878601" lon="-1.35520246">
<ele>501</ele>
<time>2014-03-08T13:01:15Z</time>
</trkpt>
<trkpt lat="37.84863416" lon="-1.35519222">
<ele>495</ele>
<time>2014-03-08T13:01:17Z</time>
</trkpt>
<trkpt lat="37.84849232" lon="-1.35522562">
<ele>492</ele>
<time>2014-03-08T13:01:19Z</time>
</trkpt>
<trkpt lat="37.84836214" lon="-1.35522487">
<ele>490</ele>
<time>2014-03-08T13:01:21Z</time>
</trkpt>
<trkpt lat="37.84821811" lon="-1.3552527">
<ele>484</ele>
<time>2014-03-08T13:01:23Z</time>
</trkpt>
<trkpt lat="37.84808817" lon="-1.35523404">
<ele>482</ele>
<time>2014-03-08T13:01:25Z</time>
</trkpt>
<trkpt lat="37.84799973" lon="-1.35515412">
<ele>477</ele>
<time>2014-03-08T13:01:27Z</time>
</trkpt>
<trkpt lat="37.84787842" lon="-1.35512992">
<ele>472</ele>
<time>2014-03-08T13:01:29Z</time>
</trkpt>
<trkpt lat="37.84774494" lon="-1.35513899">
<ele>466</ele>
<time>2014-03-08T13:01:31Z</time>
</trkpt>
<trkpt lat="37.84762924" lon="-1.3551931">
<ele>459</ele>
<time>2014-03-08T13:01:33Z</time>
</trkpt>
<trkpt lat="37.84752076" lon="-1.35527023">
<ele>454</ele>
<time>2014-03-08T13:01:35Z</time>
</trkpt>
<trkpt lat="37.84740074" lon="-1.35536869">
<ele>452</ele>
<time>2014-03-08T13:01:37Z</time>
</trkpt>
<trkpt lat="37.84732484" lon="-1.35550445">
<ele>450</ele>
<time>2014-03-08T13:01:39Z</time>
</trkpt>
<trkpt lat="37.84723963" lon="-1.35563602">
<ele>449</ele>
<time>2014-03-08T13:01:41Z</time>
</trkpt>
<trkpt lat="37.84714547" lon="-1.35579473">
<ele>443</ele>
<time>2014-03-08T13:01:43Z</time>
</trkpt>
<trkpt lat="37.84705709" lon="-1.35593839">
<ele>439</ele>
<time>2014-03-08T13:01:45Z</time>
</trkpt>
<trkpt lat="37.84696548" lon="-1.35606717">
<ele>437</ele>
<time>2014-03-08T13:01:47Z</time>
</trkpt>
<trkpt lat="37.84682536" lon="-1.35610641">
<ele>424</ele>
<time>2014-03-08T13:01:49Z</time>
</trkpt>
<trkpt lat="37.84667153" lon="-1.35619532">
<ele>416</ele>
<time>2014-03-08T13:01:51Z</time>
</trkpt>
<trkpt lat="37.84656351" lon="-1.35626032">
<ele>415</ele>
<time>2014-03-08T13:01:53Z</time>
</trkpt>
<trkpt lat="37.84647362" lon="-1.35636646">
<ele>410</ele>
<time>2014-03-08T13:01:55Z</time>
</trkpt>
<trkpt lat="37.84632826" lon="-1.35643087">
<ele>403</ele>
<time>2014-03-08T13:01:57Z</time>
</trkpt>
<trkpt lat="37.84618962" lon="-1.35649852">
<ele>399</ele>
<time>2014-03-08T13:01:59Z</time>
</trkpt>
<trkpt lat="37.84605705" lon="-1.3565084">
<ele>396</ele>
<time>2014-03-08T13:02:01Z</time>
</trkpt>
<trkpt lat="37.84592309" lon="-1.3565442">
<ele>390</ele>
<time>2014-03-08T13:02:03Z</time>
</trkpt>
<trkpt lat="37.84575171" lon="-1.35658551">
<ele>386</ele>
<time>2014-03-08T13:02:05Z</time>
</trkpt>
<trkpt lat="37.84557863" lon="-1.35663769">
<ele>383</ele>
<time>2014-03-08T13:02:07Z</time>
</trkpt>
<trkpt lat="37.84544089" lon="-1.35667773">
<ele>381</ele>
<time>2014-03-08T13:02:09Z</time>
</trkpt>
<trkpt lat="37.84527208" lon="-1.3567061">
<ele>379</ele>
<time>2014-03-08T13:02:11Z</time>
</trkpt>
<trkpt lat="37.84510438" lon="-1.35674836">
<ele>378</ele>
<time>2014-03-08T13:02:13Z</time>
</trkpt>
<trkpt lat="37.84500787" lon="-1.35671621">
<ele>376</ele>
<time>2014-03-08T13:02:15Z</time>
</trkpt>
<trkpt lat="37.84487615" lon="-1.35671633">
<ele>372</ele>
<time>2014-03-08T13:02:17Z</time>
</trkpt>
<trkpt lat="37.84470216" lon="-1.35666611">
<ele>369</ele>
<time>2014-03-08T13:02:19Z</time>
</trkpt>
<trkpt lat="37.8445307" lon="-1.35661131">
<ele>364</ele>
<time>2014-03-08T13:02:21Z</time>
</trkpt>
<trkpt lat="37.84438394" lon="-1.35653729">
<ele>359</ele>
<time>2014-03-08T13:02:23Z</time>
</trkpt>
<trkpt lat="37.84421136" lon="-1.35646273">
<ele>352</ele>
<time>2014-03-08T13:02:25Z</time>
</trkpt>
<trkpt lat="37.84406537" lon="-1.356389">
<ele>347</ele>
<time>2014-03-08T13:02:27Z</time>
</trkpt>
<trkpt lat="37.8438967" lon="-1.35625898">
<ele>339</ele>
<time>2014-03-08T13:02:29Z</time>
</trkpt>
<trkpt lat="37.84374554" lon="-1.35613838">
<ele>333</ele>
<time>2014-03-08T13:02:31Z</time>
</trkpt>
<trkpt lat="37.8436036" lon="-1.35601925">
<ele>328</ele>
<time>2014-03-08T13:02:33Z</time>
</trkpt>
<trkpt lat="37.84348815" lon="-1.35591392">
<ele>325</ele>
<time>2014-03-08T13:02:35Z</time>
</trkpt>
<trkpt lat="37.84335302" lon="-1.35583738">
<ele>325</ele>
<time>2014-03-08T13:02:37Z</time>
</trkpt>
<trkpt lat="37.84325883" lon="-1.35576319">
<ele>323</ele>
<time>2014-03-08T13:02:39Z</time>
</trkpt>
<trkpt lat="37.84314301" lon="-1.35567387">
<ele>320</ele>
<time>2014-03-08T13:02:41Z</time>
</trkpt>
<trkpt lat="37.84301989" lon="-1.3555716">
<ele>318</ele>
<time>2014-03-08T13:02:43Z</time>
</trkpt>
<trkpt lat="37.84292056" lon="-1.3554537">
<ele>311</ele>
<time>2014-03-08T13:02:45Z</time>
</trkpt>
<trkpt lat="37.84281814" lon="-1.35533183">
<ele>306</ele>
<time>2014-03-08T13:02:47Z</time>
</trkpt>
<trkpt lat="37.84275325" lon="-1.35513851">
<ele>306</ele>
<time>2014-03-08T13:02:49Z</time>
</trkpt>
<trkpt lat="37.84271102" lon="-1.35500723">
<ele>302</ele>
<time>2014-03-08T13:02:51Z</time>
</trkpt>
<trkpt lat="37.84267403" lon="-1.35487939">
<ele>299</ele>
<time>2014-03-08T13:02:53Z</time>
</trkpt>
<trkpt lat="37.84264582" lon="-1.35466164">
<ele>289</ele>
<time>2014-03-08T13:02:55Z</time>
</trkpt>
<trkpt lat="37.84262193" lon="-1.35445385">
<ele>285</ele>
<time>2014-03-08T13:02:57Z</time>
</trkpt>
<trkpt lat="37.8426161" lon="-1.35430711">
<ele>284</ele>
<time>2014-03-08T13:02:59Z</time>
</trkpt>
<trkpt lat="37.84278821" lon="-1.3541071">
<ele>279</ele>
<time>2014-03-08T13:03:01Z</time>
</trkpt>
<trkpt lat="37.84284916" lon="-1.35398363">
<ele>275</ele>
<time>2014-03-08T13:03:03Z</time>
</trkpt>
<trkpt lat="37.84289622" lon="-1.35383225">
<ele>272</ele>
<time>2014-03-08T13:03:05Z</time>
</trkpt>
<trkpt lat="37.84296001" lon="-1.35369139">
<ele>268</ele>
<time>2014-03-08T13:03:07Z</time>
</trkpt>
<trkpt lat="37.84308998" lon="-1.35364805">
<ele>268</ele>
<time>2014-03-08T13:03:09Z</time>
</trkpt>
<trkpt lat="37.84318682" lon="-1.35375595">
<ele>265</ele>
<time>2014-03-08T13:03:11Z</time>
</trkpt>
<trkpt lat="37.84325899" lon="-1.35382515">
<ele>264</ele>
<time>2014-03-08T13:03:13Z</time>
</trkpt>
<trkpt lat="37.84334406" lon="-1.35392514">
<ele>263</ele>
<time>2014-03-08T13:03:15Z</time>
</trkpt>
<trkpt lat="37.84345474" lon="-1.35406846">
<ele>259</ele>
<time>2014-03-08T13:03:17Z</time>
</trkpt>
<trkpt lat="37.84354022" lon="-1.35418545">
<ele>259</ele>
<time>2014-03-08T13:03:19Z</time>
</trkpt>
<trkpt lat="37.84366684" lon="-1.3543033">
<ele>253</ele>
<time>2014-03-08T13:03:21Z</time>
</trkpt>
<trkpt lat="37.84379461" lon="-1.35441582">
<ele>251</ele>
<time>2014-03-08T13:03:23Z</time>
</trkpt>
<trkpt lat="37.84391879" lon="-1.35451748">
<ele>249</ele>
<time>2014-03-08T13:03:25Z</time>
</trkpt>
<trkpt lat="37.84399852" lon="-1.35456107">
<ele>245</ele>
<time>2014-03-08T13:03:27Z</time>
</trkpt>
<trkpt lat="37.84410513" lon="-1.35459536">
<ele>243</ele>
<time>2014-03-08T13:03:29Z</time>
</trkpt>
<trkpt lat="37.84420946" lon="-1.35461358">
<ele>242</ele>
<time>2014-03-08T13:03:31Z</time>
</trkpt>
<trkpt lat="37.84434818" lon="-1.35451835">
<ele>235</ele>
<time>2014-03-08T13:03:33Z</time>
</trkpt>
<trkpt lat="37.84446373" lon="-1.35445547">
<ele>230</ele>
<time>2014-03-08T13:03:35Z</time>
</trkpt>
<trkpt lat="37.84452539" lon="-1.35423209">
<ele>221</ele>
<time>2014-03-08T13:03:37Z</time>
</trkpt>
<trkpt lat="37.84458122" lon="-1.35405365">
<ele>215</ele>
<time>2014-03-08T13:03:39Z</time>
</trkpt>
<trkpt lat="37.84462795" lon="-1.35389735">
<ele>210</ele>
<time>2014-03-08T13:03:41Z</time>
</trkpt>
<trkpt lat="37.84469246" lon="-1.3537626">
<ele>205</ele>
<time>2014-03-08T13:03:43Z</time>
</trkpt>
<trkpt lat="37.84476469" lon="-1.35359548">
<ele>202</ele>
<time>2014-03-08T13:03:45Z</time>
</trkpt>
<trkpt lat="37.84480986" lon="-1.35348101">
<ele>202</ele>
<time>2014-03-08T13:03:47Z</time>
</trkpt>
<trkpt lat="37.84479795" lon="-1.35353848">
<ele>202</ele>
<time>2014-03-08T13:03:49Z</time>
</trkpt>
<trkpt lat="37.84480822" lon="-1.35352355">
<ele>200</ele>
<time>2014-03-08T13:03:51Z</time>
</trkpt>
<trkpt lat="37.84481399" lon="-1.35352934">
<ele>200</ele>
<time>2014-03-08T13:03:53Z</time>
</trkpt>
<trkpt lat="37.84481154" lon="-1.35353215">
<ele>201</ele>
<time>2014-03-08T13:03:55Z</time>
</trkpt>
<trkpt lat="37.84481453" lon="-1.35352887">
<ele>201</ele>
<time>2014-03-08T13:03:57Z</time>
</trkpt>
<trkpt lat="37.84481258" lon="-1.35352932">
<ele>201</ele>
<time>2014-03-08T13:03:59Z</time>
</trkpt>
<trkpt lat="37.84481258" lon="-1.35352932">
<ele>201</ele>
<time>2014-03-08T13:04:01Z</time>
</trkpt>
<trkpt lat="37.84481409" lon="-1.35352837">
<ele>201</ele>
<time>2014-03-08T13:04:03Z</time>
</trkpt>
<trkpt lat="37.84481262" lon="-1.35352632">
<ele>200</ele>
<time>2014-03-08T13:04:05Z</time>
</trkpt>
<trkpt lat="37.84481297" lon="-1.35352533">
<ele>200</ele>
<time>2014-03-08T13:04:07Z</time>
</trkpt>
<trkpt lat="37.84481228" lon="-1.35352311">
<ele>200</ele>
<time>2014-03-08T13:04:09Z</time>
</trkpt>
<trkpt lat="37.8448122" lon="-1.35352399">
<ele>200</ele>
<time>2014-03-08T13:04:11Z</time>
</trkpt>
<trkpt lat="37.84481221" lon="-1.35352515">
<ele>200</ele>
<time>2014-03-08T13:04:13Z</time>
</trkpt>
<trkpt lat="37.84481225" lon="-1.35352618">
<ele>200</ele>
<time>2014-03-08T13:04:15Z</time>
</trkpt>
<trkpt lat="37.84481233" lon="-1.35352702">
<ele>200</ele>
<time>2014-03-08T13:04:17Z</time>
</trkpt>
<trkpt lat="37.84481239" lon="-1.35352723">
<ele>200</ele>
<time>2014-03-08T13:04:19Z</time>
</trkpt>
<trkpt lat="37.84481191" lon="-1.35352568">
<ele>200</ele>
<time>2014-03-08T13:04:21Z</time>
</trkpt>
<trkpt lat="37.84481188" lon="-1.35352563">
<ele>200</ele>
<time>2014-03-08T13:04:23Z</time>
</trkpt>
<trkpt lat="37.84481188" lon="-1.35352557">
<ele>200</ele>
<time>2014-03-08T13:04:25Z</time>
</trkpt>
<trkpt lat="37.84481164" lon="-1.35352476">
<ele>200</ele>
<time>2014-03-08T13:04:27Z</time>
</trkpt>
<trkpt lat="" lon="">
<ele></ele>
<time>2014-03-08TZ</time>
</trkpt>
</trkseg>
</trk>
<wpt lat="37.829412" lon="-1.305055">
	<name>DespegueS</name>
	<desc></desc>
	<cmt></cmt>
	<photoid>0</photoid>
	<type>0</type>
</wpt>
<wpt lat="
" lon="">
	<name></name>
	<desc></desc>
	<cmt></cmt>
	<photoid></photoid>
	<type></type>
</wpt>
</gpx>
